Time,TemperatureF,DewpointF,PressureIn,WindDirection,WindDirectionDegrees,WindSpeedMPH,WindSpeedGustMPH,Humidity,HourlyPrecipIn,Conditions,Clouds,dailyrainin,SoftwareType,DateUTC
2013-08-04 00:01:00,72.1,70.9,29.98,NE,52,0.0,0.0,96,0.00,,,0.01,Wunderground v.1.15,2013-08-04 04:01:00,
2013-08-04 00:07:00,71.9,70.4,29.98,NE,52,0.0,0.0,95,0.00,,,0.00,Wunderground v.1.15,2013-08-04 04:07:00,
2013-08-04 00:08:00,71.9,70.7,29.98,NE,52,0.0,0.0,96,0.00,,,0.00,Wunderground v.1.15,2013-08-04 04:08:00,
2013-08-04 00:09:00,71.8,70.6,29.98,NE,52,0.0,0.0,96,0.00,,,0.00,Wunderground v.1.15,2013-08-04 04:09:00,
2013-08-04 00:10:00,71.8,70.6,29.98,NE,52,0.0,0.0,96,0.00,,,0.00,Wunderground v.1.15,2013-08-04 04:10:00,
2013-08-04 00:11:00,71.8,70.6,29.98,NE,52,0.0,0.0,96,0.00,,,0.00,Wunderground v.1.15,2013-08-04 04:11:00,
2013-08-04 00:14:00,71.7,70.5,29.98,NE,52,0.0,0.0,96,0.00,,,0.00,Wunderground v.1.15,2013-08-04 04:14:00,
2013-08-04 00:15:00,71.7,70.5,29.98,NE,52,0.0,0.0,96,0.00,,,0.00,Wunderground v.1.15,2013-08-04 04:15:00,
2013-08-04 00:16:00,71.6,70.4,29.98,NE,52,0.0,0.0,96,0.00,,,0.00,Wunderground v.1.15,2013-08-04 04:16:00,
2013-08-04 00:23:00,71.7,70.5,29.98,NE,52,0.0,0.0,96,0.00,,,0.00,Wunderground v.1.15,2013-08-04 04:23:00,
2013-08-04 00:24:00,71.7,70.5,29.98,NE,52,0.0,0.0,96,0.00,,,0.00,Wunderground v.1.15,2013-08-04 04:24:00,
2013-08-04 00:25:00,71.7,70.5,29.98,NE,52,0.0,0.0,96,0.00,,,0.00,Wunderground v.1.15,2013-08-04 04:25:00,
2013-08-04 00:26:00,71.7,70.5,29.98,NE,52,0.0,0.0,96,0.00,,,0.00,Wunderground v.1.15,2013-08-04 04:26:00,
2013-08-04 00:31:00,71.6,70.4,29.98,NE,52,0.0,0.0,96,0.00,,,0.00,Wunderground v.1.15,2013-08-04 04:31:00,
2013-08-04 00:32:00,71.6,70.4,29.98,NE,52,0.0,0.0,96,0.00,,,0.00,Wunderground v.1.15,2013-08-04 04:32:00,
2013-08-04 00:36:00,71.5,70.3,29.98,NE,52,0.0,0.0,96,0.00,,,0.00,Wunderground v.1.15,2013-08-04 04:36:00,
2013-08-04 00:39:00,71.5,70.3,29.98,NE,52,0.0,0.0,96,0.00,,,0.00,Wunderground v.1.15,2013-08-04 04:39:00,
2013-08-04 00:41:00,71.4,70.2,29.98,NE,52,0.0,0.0,96,0.00,,,0.00,Wunderground v.1.15,2013-08-04 04:41:00,
2013-08-04 00:42:00,71.4,70.2,29.98,NE,52,0.0,0.0,96,0.00,,,0.00,Wunderground v.1.15,2013-08-04 04:42:00,
2013-08-04 00:47:00,71.3,70.1,29.98,NE,52,0.0,0.0,96,0.00,,,0.00,Wunderground v.1.15,2013-08-04 04:47:00,
2013-08-04 00:49:00,71.3,70.1,29.97,NE,52,0.0,0.0,96,0.00,,,0.00,Wunderground v.1.15,2013-08-04 04:49:00,
2013-08-04 00:52:00,71.3,70.1,29.97,NE,52,0.0,0.0,96,0.00,,,0.00,Wunderground v.1.15,2013-08-04 04:52:00,
2013-08-04 00:53:00,71.3,70.1,29.97,NE,52,0.0,0.0,96,0.00,,,0.00,Wunderground v.1.15,2013-08-04 04:53:00,
2013-08-04 00:54:00,71.3,70.1,29.97,NE,52,0.0,0.0,96,0.00,,,0.00,Wunderground v.1.15,2013-08-04 04:54:00,
2013-08-04 00:55:00,71.2,70.0,29.97,NE,52,0.0,0.0,96,0.00,,,0.00,Wunderground v.1.15,2013-08-04 04:55:00,
2013-08-04 00:57:00,71.2,70.0,29.97,NE,52,0.0,0.0,96,0.00,,,0.00,Wunderground v.1.15,2013-08-04 04:57:00,
2013-08-04 00:59:00,71.1,69.9,29.97,NE,52,0.0,0.0,96,0.00,,,0.00,Wunderground v.1.15,2013-08-04 04:59:00,
2013-08-04 01:01:00,71.1,69.9,29.97,NE,52,0.0,0.0,96,0.00,,,0.00,Wunderground v.1.15,2013-08-04 05:01:00,
2013-08-04 01:05:00,71.1,69.9,29.97,NE,52,1.0,1.0,96,0.00,,,0.00,Wunderground v.1.15,2013-08-04 05:05:00,
2013-08-04 01:07:00,71.1,70.2,29.96,NE,52,0.0,1.0,97,0.00,,,0.00,Wunderground v.1.15,2013-08-04 05:07:00,
2013-08-04 01:08:00,71.1,70.2,29.96,NE,52,0.0,1.0,97,0.00,,,0.00,Wunderground v.1.15,2013-08-04 05:08:00,
2013-08-04 01:11:00,71.2,70.3,29.96,NE,52,0.0,0.0,97,0.00,,,0.00,Wunderground v.1.15,2013-08-04 05:11:00,
2013-08-04 01:14:00,71.2,70.3,29.97,NE,52,2.0,2.0,97,0.00,,,0.00,Wunderground v.1.15,2013-08-04 05:14:00,
2013-08-04 01:17:00,71.3,70.4,29.97,NE,52,2.0,2.0,97,0.00,,,0.00,Wunderground v.1.15,2013-08-04 05:17:00,
2013-08-04 01:18:00,71.3,70.4,29.97,NE,52,1.0,2.0,97,0.00,,,0.00,Wunderground v.1.15,2013-08-04 05:18:00,
2013-08-04 01:21:00,71.1,69.9,29.97,NE,52,0.0,2.0,96,0.00,,,0.00,Wunderground v.1.15,2013-08-04 05:21:00,
2013-08-04 01:24:00,71.0,69.8,29.97,NE,52,1.0,2.0,96,0.00,,,0.00,Wunderground v.1.15,2013-08-04 05:24:00,
2013-08-04 01:25:00,70.9,69.7,29.97,NE,52,0.0,2.0,96,0.00,,,0.00,Wunderground v.1.15,2013-08-04 05:25:00,
2013-08-04 01:26:00,70.9,69.7,29.97,NE,52,0.0,2.0,96,0.00,,,0.00,Wunderground v.1.15,2013-08-04 05:26:00,
2013-08-04 01:29:00,70.9,69.7,29.97,NE,52,2.0,2.0,96,0.00,,,0.00,Wunderground v.1.15,2013-08-04 05:29:00,
2013-08-04 01:30:00,70.9,70.0,29.97,NE,52,0.0,0.0,97,0.00,,,0.00,Wunderground v.1.15,2013-08-04 05:30:00,
2013-08-04 01:31:00,70.9,70.0,29.97,NE,52,0.0,0.0,97,0.00,,,0.00,Wunderground v.1.15,2013-08-04 05:31:00,
2013-08-04 01:33:00,70.9,70.0,29.97,NE,52,0.0,0.0,97,0.00,,,0.00,Wunderground v.1.15,2013-08-04 05:33:00,
2013-08-04 01:37:00,70.9,70.0,29.97,NE,52,0.0,0.0,97,0.00,,,0.00,Wunderground v.1.15,2013-08-04 05:37:00,
2013-08-04 01:42:00,71.0,70.1,29.97,NE,52,0.0,0.0,97,0.00,,,0.00,Wunderground v.1.15,2013-08-04 05:42:00,
2013-08-04 01:46:00,71.0,70.1,29.97,NE,52,0.0,0.0,97,0.00,,,0.00,Wunderground v.1.15,2013-08-04 05:46:00,
2013-08-04 01:48:00,71.1,70.2,29.97,NE,52,0.0,0.0,97,0.00,,,0.00,Wunderground v.1.15,2013-08-04 05:48:00,
2013-08-04 01:49:00,71.1,70.2,29.97,NE,52,0.0,0.0,97,0.00,,,0.00,Wunderground v.1.15,2013-08-04 05:49:00,
2013-08-04 01:52:00,71.2,70.3,29.97,NE,52,0.0,0.0,97,0.00,,,0.00,Wunderground v.1.15,2013-08-04 05:52:00,
2013-08-04 01:54:00,71.2,70.3,29.97,NE,52,0.0,0.0,97,0.00,,,0.00,Wunderground v.1.15,2013-08-04 05:54:00,
2013-08-04 01:55:00,71.2,70.3,29.97,NE,52,0.0,0.0,97,0.00,,,0.00,Wunderground v.1.15,2013-08-04 05:55:00,
2013-08-04 01:59:00,71.2,70.3,29.97,NE,52,0.0,0.0,97,0.00,,,0.00,Wunderground v.1.15,2013-08-04 05:59:00,
2013-08-04 02:00:00,71.3,70.4,29.97,NE,52,0.0,0.0,97,0.00,,,0.00,Wunderground v.1.15,2013-08-04 06:00:00,
2013-08-04 02:01:00,71.2,70.3,29.97,NE,52,0.0,0.0,97,0.00,,,0.00,Wunderground v.1.15,2013-08-04 06:01:00,
2013-08-04 02:04:00,71.2,70.3,29.97,NE,52,0.0,0.0,97,0.00,,,0.00,Wunderground v.1.15,2013-08-04 06:04:00,
2013-08-04 02:05:00,71.2,70.3,29.97,NE,52,0.0,0.0,97,0.00,,,0.00,Wunderground v.1.15,2013-08-04 06:05:00,
2013-08-04 02:06:00,71.2,70.3,29.97,NE,52,0.0,1.0,97,0.00,,,0.00,Wunderground v.1.15,2013-08-04 06:06:00,
2013-08-04 02:07:00,71.2,70.3,29.97,NE,52,0.0,1.0,97,0.00,,,0.00,Wunderground v.1.15,2013-08-04 06:07:00,
2013-08-04 02:09:00,71.1,70.2,29.97,NE,52,0.0,1.0,97,0.00,,,0.00,Wunderground v.1.15,2013-08-04 06:09:00,
2013-08-04 02:10:00,71.1,70.2,29.97,NE,52,0.0,0.0,97,0.00,,,0.00,Wunderground v.1.15,2013-08-04 06:10:00,
2013-08-04 02:12:00,71.0,70.1,29.97,NE,52,0.0,0.0,97,0.00,,,0.00,Wunderground v.1.15,2013-08-04 06:12:00,
2013-08-04 02:14:00,70.9,70.0,29.97,NE,52,0.0,0.0,97,0.00,,,0.00,Wunderground v.1.15,2013-08-04 06:14:00,
2013-08-04 02:15:00,70.9,69.7,29.97,NE,52,0.0,0.0,96,0.00,,,0.00,Wunderground v.1.15,2013-08-04 06:15:00,
2013-08-04 02:17:00,70.8,69.6,29.97,NE,52,0.0,0.0,96,0.00,,,0.00,Wunderground v.1.15,2013-08-04 06:17:00,
2013-08-04 02:19:00,70.8,69.9,29.97,NE,52,0.0,0.0,97,0.00,,,0.00,Wunderground v.1.15,2013-08-04 06:19:00,
2013-08-04 02:20:00,70.8,69.9,29.97,NE,52,0.0,0.0,97,0.00,,,0.00,Wunderground v.1.15,2013-08-04 06:20:00,
2013-08-04 02:22:00,70.7,69.8,29.97,NE,52,0.0,0.0,97,0.00,,,0.00,Wunderground v.1.15,2013-08-04 06:22:00,
2013-08-04 02:23:00,70.8,69.9,29.97,NE,52,0.0,0.0,97,0.00,,,0.00,Wunderground v.1.15,2013-08-04 06:23:00,
2013-08-04 02:24:00,70.7,69.8,29.97,NE,52,0.0,0.0,97,0.00,,,0.00,Wunderground v.1.15,2013-08-04 06:24:00,
2013-08-04 02:25:00,70.7,69.8,29.97,NE,52,0.0,0.0,97,0.00,,,0.00,Wunderground v.1.15,2013-08-04 06:25:00,
2013-08-04 02:27:00,70.8,69.9,29.96,NE,52,0.0,0.0,97,0.00,,,0.00,Wunderground v.1.15,2013-08-04 06:27:00,
2013-08-04 02:28:00,70.8,69.9,29.96,NE,52,0.0,0.0,97,0.00,,,0.00,Wunderground v.1.15,2013-08-04 06:28:00,
2013-08-04 02:30:00,70.8,69.9,29.96,NE,52,0.0,0.0,97,0.00,,,0.00,Wunderground v.1.15,2013-08-04 06:30:00,
2013-08-04 02:32:00,70.9,70.0,29.96,NE,52,0.0,0.0,97,0.00,,,0.00,Wunderground v.1.15,2013-08-04 06:32:00,
2013-08-04 02:33:00,70.9,70.0,29.96,NE,52,0.0,0.0,97,0.00,,,0.00,Wunderground v.1.15,2013-08-04 06:33:00,
2013-08-04 02:34:00,70.9,70.0,29.96,NE,52,0.0,0.0,97,0.00,,,0.00,Wunderground v.1.15,2013-08-04 06:34:00,
2013-08-04 02:35:00,71.0,70.1,29.96,NE,52,0.0,0.0,97,0.00,,,0.00,Wunderground v.1.15,2013-08-04 06:35:00,
2013-08-04 02:37:00,71.0,70.1,29.96,NE,52,0.0,0.0,97,0.00,,,0.00,Wunderground v.1.15,2013-08-04 06:37:00,
2013-08-04 02:39:00,71.0,70.1,29.96,NE,52,0.0,0.0,97,0.00,,,0.00,Wunderground v.1.15,2013-08-04 06:39:00,
2013-08-04 02:40:00,71.1,70.2,29.96,NE,52,0.0,0.0,97,0.00,,,0.00,Wunderground v.1.15,2013-08-04 06:40:00,
2013-08-04 02:43:00,71.1,70.2,29.96,NE,52,0.0,0.0,97,0.00,,,0.00,Wunderground v.1.15,2013-08-04 06:43:00,
2013-08-04 02:44:00,71.1,70.2,29.96,NE,52,0.0,0.0,97,0.00,,,0.00,Wunderground v.1.15,2013-08-04 06:44:00,
2013-08-04 02:45:00,71.1,70.2,29.96,NE,52,0.0,0.0,97,0.00,,,0.00,Wunderground v.1.15,2013-08-04 06:45:00,
2013-08-04 02:48:00,71.1,70.2,29.96,NE,52,0.0,0.0,97,0.00,,,0.00,Wunderground v.1.15,2013-08-04 06:48:00,
2013-08-04 02:49:00,71.1,70.2,29.96,NE,52,0.0,0.0,97,0.00,,,0.00,Wunderground v.1.15,2013-08-04 06:49:00,
2013-08-04 02:50:00,71.1,70.2,29.96,NE,52,0.0,0.0,97,0.00,,,0.00,Wunderground v.1.15,2013-08-04 06:50:00,
2013-08-04 02:52:00,71.1,70.2,29.96,NE,52,0.0,0.0,97,0.00,,,0.00,Wunderground v.1.15,2013-08-04 06:52:00,
2013-08-04 02:54:00,71.1,70.2,29.96,NE,52,0.0,0.0,97,0.00,,,0.00,Wunderground v.1.15,2013-08-04 06:54:00,
2013-08-04 02:55:00,71.1,70.2,29.96,NE,52,0.0,0.0,97,0.00,,,0.00,Wunderground v.1.15,2013-08-04 06:55:00,
2013-08-04 02:57:00,71.0,70.1,29.96,NE,52,0.0,0.0,97,0.00,,,0.00,Wunderground v.1.15,2013-08-04 06:57:00,
2013-08-04 02:59:00,70.9,70.0,29.96,NE,52,0.0,0.0,97,0.00,,,0.00,Wunderground v.1.15,2013-08-04 06:59:00,
2013-08-04 03:00:00,70.9,70.0,29.96,NE,52,0.0,0.0,97,0.00,,,0.00,Wunderground v.1.15,2013-08-04 07:00:00,
2013-08-04 03:01:00,70.8,69.9,29.96,NE,52,0.0,0.0,97,0.00,,,0.00,Wunderground v.1.15,2013-08-04 07:01:00,
2013-08-04 03:02:00,70.8,69.9,29.96,NE,52,0.0,0.0,97,0.00,,,0.00,Wunderground v.1.15,2013-08-04 07:02:00,
2013-08-04 03:04:00,70.7,69.8,29.96,NE,52,0.0,0.0,97,0.00,,,0.00,Wunderground v.1.15,2013-08-04 07:04:00,
2013-08-04 03:05:00,70.7,69.8,29.96,NE,52,0.0,0.0,97,0.00,,,0.00,Wunderground v.1.15,2013-08-04 07:05:00,
2013-08-04 03:07:00,70.6,69.7,29.96,NE,52,0.0,0.0,97,0.00,,,0.00,Wunderground v.1.15,2013-08-04 07:07:00,
2013-08-04 03:10:00,70.5,69.6,29.95,NE,52,0.0,0.0,97,0.00,,,0.00,Wunderground v.1.15,2013-08-04 07:10:00,
2013-08-04 03:11:00,70.4,69.5,29.95,NE,52,0.0,0.0,97,0.00,,,0.00,Wunderground v.1.15,2013-08-04 07:11:00,
2013-08-04 03:12:00,70.4,69.5,29.95,NE,52,0.0,0.0,97,0.00,,,0.00,Wunderground v.1.15,2013-08-04 07:12:00,
2013-08-04 03:15:00,70.3,69.4,29.95,NE,52,0.0,0.0,97,0.00,,,0.00,Wunderground v.1.15,2013-08-04 07:15:00,
2013-08-04 03:16:00,70.3,69.4,29.95,NE,52,0.0,0.0,97,0.00,,,0.00,Wunderground v.1.15,2013-08-04 07:16:00,
2013-08-04 03:17:00,70.2,69.3,29.95,NE,52,0.0,0.0,97,0.00,,,0.00,Wunderground v.1.15,2013-08-04 07:17:00,
2013-08-04 03:20:00,70.3,69.4,29.95,NE,52,0.0,1.0,97,0.00,,,0.00,Wunderground v.1.15,2013-08-04 07:20:00,
2013-08-04 03:21:00,70.3,69.4,29.95,NE,52,1.0,1.0,97,0.00,,,0.00,Wunderground v.1.15,2013-08-04 07:21:00,
2013-08-04 03:22:00,70.3,69.4,29.95,NE,52,0.0,1.0,97,0.00,,,0.00,Wunderground v.1.15,2013-08-04 07:22:00,
2013-08-04 03:23:00,70.3,69.4,29.95,NE,52,0.0,1.0,97,0.00,,,0.00,Wunderground v.1.15,2013-08-04 07:23:00,
2013-08-04 03:27:00,70.3,69.4,29.95,NE,52,0.0,1.0,97,0.00,,,0.00,Wunderground v.1.15,2013-08-04 07:27:00,
2013-08-04 03:28:00,70.4,69.5,29.95,NE,52,0.0,1.0,97,0.00,,,0.00,Wunderground v.1.15,2013-08-04 07:28:00,
2013-08-04 03:29:00,70.4,69.5,29.96,NE,52,0.0,1.0,97,0.00,,,0.00,Wunderground v.1.15,2013-08-04 07:29:00,
2013-08-04 03:32:00,70.3,69.4,29.95,NE,52,0.0,1.0,97,0.00,,,0.00,Wunderground v.1.15,2013-08-04 07:32:00,
2013-08-04 03:33:00,70.4,69.5,29.95,NE,52,0.0,1.0,97,0.00,,,0.00,Wunderground v.1.15,2013-08-04 07:33:00,
2013-08-04 03:34:00,70.4,69.5,29.96,NE,52,0.0,1.0,97,0.00,,,0.00,Wunderground v.1.15,2013-08-04 07:34:00,
2013-08-04 03:37:00,70.4,69.5,29.96,NE,52,0.0,1.0,97,0.00,,,0.00,Wunderground v.1.15,2013-08-04 07:37:00,
2013-08-04 03:38:00,70.4,69.5,29.96,NE,52,0.0,1.0,97,0.00,,,0.00,Wunderground v.1.15,2013-08-04 07:38:00,
2013-08-04 03:39:00,70.4,69.5,29.96,NE,52,0.0,1.0,97,0.00,,,0.00,Wunderground v.1.15,2013-08-04 07:39:00,
2013-08-04 03:42:00,70.4,69.5,29.96,NE,52,0.0,0.0,97,0.00,,,0.00,Wunderground v.1.15,2013-08-04 07:42:00,
2013-08-04 03:44:00,70.5,69.6,29.96,NE,52,0.0,0.0,97,0.00,,,0.00,Wunderground v.1.15,2013-08-04 07:44:00,
2013-08-04 03:45:00,70.4,69.5,29.96,NE,52,0.0,0.0,97,0.00,,,0.00,Wunderground v.1.15,2013-08-04 07:45:00,
2013-08-04 03:47:00,70.4,69.5,29.96,NE,52,0.0,0.0,97,0.00,,,0.00,Wunderground v.1.15,2013-08-04 07:47:00,
2013-08-04 03:49:00,70.4,69.5,29.96,NE,52,0.0,0.0,97,0.00,,,0.00,Wunderground v.1.15,2013-08-04 07:49:00,
2013-08-04 03:50:00,70.4,69.5,29.96,NE,52,0.0,0.0,97,0.00,,,0.00,Wunderground v.1.15,2013-08-04 07:50:00,
2013-08-04 03:52:00,70.4,69.5,29.96,NE,52,0.0,0.0,97,0.00,,,0.00,Wunderground v.1.15,2013-08-04 07:52:00,
2013-08-04 03:55:00,70.4,69.5,29.96,NE,52,0.0,0.0,97,0.00,,,0.00,Wunderground v.1.15,2013-08-04 07:55:00,
2013-08-04 03:58:00,70.2,69.3,29.96,NE,52,0.0,0.0,97,0.00,,,0.00,Wunderground v.1.15,2013-08-04 07:58:00,
2013-08-04 04:00:00,70.2,69.3,29.96,NE,52,0.0,0.0,97,0.00,,,0.00,Wunderground v.1.15,2013-08-04 08:00:00,
2013-08-04 04:02:00,70.1,69.2,29.96,NE,52,0.0,0.0,97,0.00,,,0.00,Wunderground v.1.15,2013-08-04 08:02:00,
2013-08-04 04:03:00,70.0,69.1,29.96,NE,52,0.0,0.0,97,0.00,,,0.00,Wunderground v.1.15,2013-08-04 08:03:00,
2013-08-04 04:05:00,70.0,69.1,29.96,NE,52,0.0,0.0,97,0.00,,,0.00,Wunderground v.1.15,2013-08-04 08:05:00,
2013-08-04 04:08:00,70.0,69.1,29.96,NE,52,0.0,0.0,97,0.00,,,0.00,Wunderground v.1.15,2013-08-04 08:08:00,
2013-08-04 04:10:00,70.0,69.1,29.96,NE,52,0.0,0.0,97,0.00,,,0.00,Wunderground v.1.15,2013-08-04 08:10:00,
2013-08-04 04:13:00,70.0,69.1,29.96,NE,52,0.0,0.0,97,0.00,,,0.00,Wunderground v.1.15,2013-08-04 08:13:00,
2013-08-04 04:15:00,70.0,69.1,29.96,NE,52,0.0,0.0,97,0.00,,,0.00,Wunderground v.1.15,2013-08-04 08:15:00,
2013-08-04 04:18:00,69.9,69.0,29.97,NE,52,0.0,0.0,97,0.00,,,0.00,Wunderground v.1.15,2013-08-04 08:18:00,
2013-08-04 04:19:00,69.9,69.0,29.97,NE,52,0.0,0.0,97,0.00,,,0.00,Wunderground v.1.15,2013-08-04 08:19:00,
2013-08-04 04:20:00,69.9,69.0,29.96,NE,52,0.0,0.0,97,0.00,,,0.00,Wunderground v.1.15,2013-08-04 08:20:00,
2013-08-04 04:21:00,69.9,69.0,29.96,NE,52,0.0,0.0,97,0.00,,,0.00,Wunderground v.1.15,2013-08-04 08:21:00,
2013-08-04 04:23:00,69.9,69.0,29.97,NE,52,0.0,1.0,97,0.00,,,0.00,Wunderground v.1.15,2013-08-04 08:23:00,
2013-08-04 04:24:00,69.9,69.0,29.97,NE,52,0.0,1.0,97,0.00,,,0.00,Wunderground v.1.15,2013-08-04 08:24:00,
2013-08-04 04:26:00,69.9,69.0,29.97,NE,52,0.0,1.0,97,0.00,,,0.00,Wunderground v.1.15,2013-08-04 08:26:00,
2013-08-04 04:28:00,69.9,69.3,29.97,NE,52,0.0,1.0,98,0.00,,,0.00,Wunderground v.1.15,2013-08-04 08:28:00,
2013-08-04 04:30:00,70.0,69.4,29.97,NE,52,0.0,0.0,98,0.00,,,0.00,Wunderground v.1.15,2013-08-04 08:30:00,
2013-08-04 04:31:00,70.0,69.4,29.97,NE,52,0.0,0.0,98,0.00,,,0.00,Wunderground v.1.15,2013-08-04 08:31:00,
2013-08-04 04:32:00,70.0,69.4,29.97,NE,52,0.0,0.0,98,0.00,,,0.00,Wunderground v.1.15,2013-08-04 08:32:00,
2013-08-04 04:34:00,70.1,69.5,29.97,NE,52,0.0,0.0,98,0.00,,,0.00,Wunderground v.1.15,2013-08-04 08:34:00,
2013-08-04 04:35:00,70.1,69.5,29.97,NE,52,0.0,0.0,98,0.00,,,0.00,Wunderground v.1.15,2013-08-04 08:35:00,
2013-08-04 04:36:00,70.1,69.5,29.97,NE,52,0.0,0.0,98,0.00,,,0.00,Wunderground v.1.15,2013-08-04 08:36:00,
2013-08-04 04:37:00,70.1,69.5,29.97,NE,52,0.0,0.0,98,0.00,,,0.00,Wunderground v.1.15,2013-08-04 08:37:00,
2013-08-04 04:39:00,70.1,69.5,29.97,NE,52,0.0,0.0,98,0.00,,,0.00,Wunderground v.1.15,2013-08-04 08:39:00,
2013-08-04 04:40:00,70.1,69.5,29.97,NE,52,0.0,0.0,98,0.00,,,0.00,Wunderground v.1.15,2013-08-04 08:40:00,
2013-08-04 04:41:00,70.1,69.5,29.97,NE,52,0.0,0.0,98,0.00,,,0.00,Wunderground v.1.15,2013-08-04 08:41:00,
2013-08-04 04:42:00,70.2,69.6,29.97,NE,52,0.0,0.0,98,0.00,,,0.00,Wunderground v.1.15,2013-08-04 08:42:00,
2013-08-04 04:45:00,70.1,69.2,29.97,NE,52,0.0,0.0,97,0.00,,,0.00,Wunderground v.1.15,2013-08-04 08:45:00,
2013-08-04 04:47:00,70.1,69.2,29.97,NE,52,0.0,0.0,97,0.00,,,0.00,Wunderground v.1.15,2013-08-04 08:47:00,
2013-08-04 04:51:00,70.0,69.1,29.98,NE,52,0.0,0.0,97,0.00,,,0.00,Wunderground v.1.15,2013-08-04 08:51:00,
2013-08-04 04:52:00,70.0,69.1,29.98,NE,52,0.0,0.0,97,0.00,,,0.00,Wunderground v.1.15,2013-08-04 08:52:00,
2013-08-04 04:56:00,70.0,69.1,29.98,NE,52,0.0,0.0,97,0.00,,,0.00,Wunderground v.1.15,2013-08-04 08:56:00,
2013-08-04 04:57:00,70.0,69.1,29.98,NE,52,0.0,0.0,97,0.00,,,0.00,Wunderground v.1.15,2013-08-04 08:57:00,
2013-08-04 04:58:00,70.0,69.1,29.98,NE,52,0.0,0.0,97,0.00,,,0.00,Wunderground v.1.15,2013-08-04 08:58:00,
2013-08-04 05:01:00,69.9,69.3,29.98,NE,52,0.0,0.0,98,0.00,,,0.00,Wunderground v.1.15,2013-08-04 09:01:00,
2013-08-04 05:02:00,69.9,69.3,29.98,NE,52,0.0,0.0,98,0.00,,,0.00,Wunderground v.1.15,2013-08-04 09:02:00,
2013-08-04 05:03:00,70.0,69.4,29.98,NE,52,0.0,0.0,98,0.00,,,0.00,Wunderground v.1.15,2013-08-04 09:03:00,
2013-08-04 05:04:00,70.0,69.4,29.98,NE,52,0.0,0.0,98,0.00,,,0.00,Wunderground v.1.15,2013-08-04 09:04:00,
2013-08-04 05:06:00,70.0,69.4,29.98,NE,52,0.0,0.0,98,0.00,,,0.00,Wunderground v.1.15,2013-08-04 09:06:00,
2013-08-04 05:08:00,70.0,69.4,29.97,NE,52,0.0,0.0,98,0.00,,,0.00,Wunderground v.1.15,2013-08-04 09:08:00,
2013-08-04 05:09:00,70.0,69.4,29.98,NE,52,0.0,0.0,98,0.00,,,0.00,Wunderground v.1.15,2013-08-04 09:09:00,
2013-08-04 05:12:00,70.1,69.5,29.97,NE,52,0.0,0.0,98,0.00,,,0.00,Wunderground v.1.15,2013-08-04 09:12:00,
2013-08-04 05:13:00,70.1,69.5,29.97,NE,52,0.0,0.0,98,0.00,,,0.00,Wunderground v.1.15,2013-08-04 09:13:00,
2013-08-04 05:14:00,70.1,69.5,29.97,NE,52,0.0,0.0,98,0.00,,,0.00,Wunderground v.1.15,2013-08-04 09:14:00,
2013-08-04 05:15:00,70.2,69.6,29.97,NE,52,0.0,0.0,98,0.00,,,0.00,Wunderground v.1.15,2013-08-04 09:15:00,
2013-08-04 05:17:00,70.2,69.6,29.97,NE,52,0.0,0.0,98,0.00,,,0.00,Wunderground v.1.15,2013-08-04 09:17:00,
2013-08-04 05:18:00,70.3,69.7,29.97,NE,52,0.0,0.0,98,0.00,,,0.00,Wunderground v.1.15,2013-08-04 09:18:00,
2013-08-04 05:19:00,70.3,69.7,29.97,NE,52,0.0,0.0,98,0.00,,,0.00,Wunderground v.1.15,2013-08-04 09:19:00,
2013-08-04 05:20:00,70.3,69.7,29.97,NE,52,0.0,0.0,98,0.00,,,0.00,Wunderground v.1.15,2013-08-04 09:20:00,
2013-08-04 05:23:00,70.4,69.8,29.97,NE,52,0.0,1.0,98,0.00,,,0.00,Wunderground v.1.15,2013-08-04 09:23:00,
2013-08-04 05:24:00,70.4,69.8,29.97,NE,52,0.0,1.0,98,0.00,,,0.00,Wunderground v.1.15,2013-08-04 09:24:00,
2013-08-04 05:25:00,70.5,69.9,29.97,NE,52,0.0,1.0,98,0.00,,,0.00,Wunderground v.1.15,2013-08-04 09:25:00,
2013-08-04 05:26:00,70.5,69.9,29.97,NE,52,0.0,1.0,98,0.00,,,0.00,Wunderground v.1.15,2013-08-04 09:26:00,
2013-08-04 05:28:00,70.5,69.9,29.98,NE,52,0.0,1.0,98,0.00,,,0.00,Wunderground v.1.15,2013-08-04 09:28:00,
2013-08-04 05:29:00,70.5,69.9,29.97,NE,52,0.0,1.0,98,0.00,,,0.00,Wunderground v.1.15,2013-08-04 09:29:00,
2013-08-04 05:30:00,70.5,69.9,29.97,NE,52,0.0,0.0,98,0.00,,,0.00,Wunderground v.1.15,2013-08-04 09:30:00,
2013-08-04 05:31:00,70.5,69.9,29.98,NE,52,0.0,0.0,98,0.00,,,0.00,Wunderground v.1.15,2013-08-04 09:31:00,
2013-08-04 05:33:00,70.5,69.9,29.98,NE,52,0.0,0.0,98,0.00,,,0.00,Wunderground v.1.15,2013-08-04 09:33:00,
2013-08-04 05:34:00,70.5,69.9,29.98,NE,52,0.0,0.0,98,0.00,,,0.00,Wunderground v.1.15,2013-08-04 09:34:00,
2013-08-04 05:35:00,70.6,70.0,29.98,NE,52,0.0,0.0,98,0.00,,,0.00,Wunderground v.1.15,2013-08-04 09:35:00,
2013-08-04 05:38:00,70.6,70.0,29.98,NE,52,0.0,0.0,98,0.00,,,0.00,Wunderground v.1.15,2013-08-04 09:38:00,
2013-08-04 05:39:00,70.6,70.0,29.98,NE,52,0.0,0.0,98,0.00,,,0.00,Wunderground v.1.15,2013-08-04 09:39:00,
2013-08-04 05:40:00,70.6,70.0,29.98,NE,52,0.0,0.0,98,0.00,,,0.00,Wunderground v.1.15,2013-08-04 09:40:00,
2013-08-04 05:41:00,70.6,70.0,29.98,NE,52,0.0,0.0,98,0.00,,,0.00,Wunderground v.1.15,2013-08-04 09:41:00,
2013-08-04 05:43:00,70.7,70.1,29.98,NE,52,0.0,0.0,98,0.00,,,0.00,Wunderground v.1.15,2013-08-04 09:43:00,
2013-08-04 05:45:00,70.7,70.1,29.98,NE,52,0.0,0.0,98,0.00,,,0.00,Wunderground v.1.15,2013-08-04 09:45:00,
2013-08-04 05:46:00,70.7,70.1,29.98,NE,52,0.0,1.0,98,0.00,,,0.00,Wunderground v.1.15,2013-08-04 09:46:00,
2013-08-04 05:48:00,70.7,70.1,29.98,NE,52,0.0,1.0,98,0.00,,,0.00,Wunderground v.1.15,2013-08-04 09:48:00,
2013-08-04 05:50:00,70.7,70.1,29.98,NE,52,0.0,0.0,98,0.00,,,0.00,Wunderground v.1.15,2013-08-04 09:50:00,
2013-08-04 05:51:00,70.6,70.0,29.98,NE,52,0.0,0.0,98,0.00,,,0.00,Wunderground v.1.15,2013-08-04 09:51:00,
2013-08-04 05:53:00,70.6,70.0,29.98,NE,52,0.0,0.0,98,0.00,,,0.00,Wunderground v.1.15,2013-08-04 09:53:00,
2013-08-04 05:54:00,70.6,70.0,29.98,NE,52,0.0,0.0,98,0.00,,,0.00,Wunderground v.1.15,2013-08-04 09:54:00,
2013-08-04 05:55:00,70.6,70.0,29.98,NE,52,0.0,0.0,98,0.00,,,0.00,Wunderground v.1.15,2013-08-04 09:55:00,
2013-08-04 05:56:00,70.6,70.0,29.98,NE,52,0.0,0.0,98,0.00,,,0.00,Wunderground v.1.15,2013-08-04 09:56:00,
2013-08-04 05:58:00,70.5,69.9,29.98,NE,52,0.0,0.0,98,0.00,,,0.00,Wunderground v.1.15,2013-08-04 09:58:00,
2013-08-04 06:00:00,70.5,69.9,29.98,NE,52,0.0,0.0,98,0.00,,,0.00,Wunderground v.1.15,2013-08-04 10:00:00,
2013-08-04 06:02:00,70.4,69.8,29.98,NE,52,0.0,0.0,98,0.00,,,0.00,Wunderground v.1.15,2013-08-04 10:02:00,
2013-08-04 06:03:00,70.4,69.8,29.98,NE,52,1.0,1.0,98,0.00,,,0.00,Wunderground v.1.15,2013-08-04 10:03:00,
2013-08-04 06:06:00,70.3,69.4,29.98,NE,52,0.0,2.0,97,0.00,,,0.00,Wunderground v.1.15,2013-08-04 10:06:00,
2013-08-04 06:07:00,70.3,69.4,29.98,NE,52,0.0,2.0,97,0.00,,,0.00,Wunderground v.1.15,2013-08-04 10:07:00,
2013-08-04 06:08:00,70.3,69.4,29.98,NE,52,0.0,2.0,97,0.00,,,0.00,Wunderground v.1.15,2013-08-04 10:08:00,
2013-08-04 06:11:00,70.3,69.4,29.98,NE,52,0.0,0.0,97,0.00,,,0.00,Wunderground v.1.15,2013-08-04 10:11:00,
2013-08-04 06:12:00,70.2,69.3,29.98,NE,52,0.0,0.0,97,0.00,,,0.00,Wunderground v.1.15,2013-08-04 10:12:00,
2013-08-04 06:13:00,70.2,69.3,29.97,NE,52,0.0,0.0,97,0.00,,,0.00,Wunderground v.1.15,2013-08-04 10:13:00,
2013-08-04 06:17:00,70.1,69.2,29.97,NE,52,0.0,0.0,97,0.00,,,0.00,Wunderground v.1.15,2013-08-04 10:17:00,
2013-08-04 06:18:00,70.1,69.2,29.97,NE,52,0.0,0.0,97,0.00,,,0.00,Wunderground v.1.15,2013-08-04 10:18:00,
2013-08-04 06:19:00,70.1,69.2,29.97,NE,52,0.0,0.0,97,0.00,,,0.00,Wunderground v.1.15,2013-08-04 10:19:00,
2013-08-04 06:22:00,70.1,69.2,29.97,NE,52,0.0,0.0,97,0.00,,,0.00,Wunderground v.1.15,2013-08-04 10:22:00,
2013-08-04 06:23:00,70.1,69.5,29.97,NE,52,0.0,0.0,98,0.00,,,0.00,Wunderground v.1.15,2013-08-04 10:23:00,
2013-08-04 06:24:00,70.1,69.5,29.97,NE,52,0.0,1.0,98,0.00,,,0.00,Wunderground v.1.15,2013-08-04 10:24:00,
2013-08-04 06:27:00,70.2,69.6,29.97,NE,52,0.0,1.0,98,0.00,,,0.00,Wunderground v.1.15,2013-08-04 10:27:00,
2013-08-04 06:28:00,70.1,69.5,29.97,NE,52,0.0,1.0,98,0.00,,,0.00,Wunderground v.1.15,2013-08-04 10:28:00,
2013-08-04 06:29:00,70.2,69.6,29.97,NE,52,0.0,1.0,98,0.00,,,0.00,Wunderground v.1.15,2013-08-04 10:29:00,
2013-08-04 06:32:00,70.1,69.5,29.97,NE,52,0.0,1.0,98,0.00,,,0.00,Wunderground v.1.15,2013-08-04 10:32:00,
2013-08-04 06:33:00,70.1,69.5,29.97,NE,52,2.0,3.0,98,0.00,,,0.00,Wunderground v.1.15,2013-08-04 10:33:00,
2013-08-04 06:34:00,70.1,69.5,29.97,NE,52,2.0,3.0,98,0.00,,,0.00,Wunderground v.1.15,2013-08-04 10:34:00,
2013-08-04 06:38:00,70.2,69.6,29.97,NE,52,0.0,3.0,98,0.00,,,0.00,Wunderground v.1.15,2013-08-04 10:38:00,
2013-08-04 06:39:00,70.2,69.6,29.97,NE,52,0.0,3.0,98,0.00,,,0.00,Wunderground v.1.15,2013-08-04 10:39:00,
2013-08-04 06:43:00,70.2,69.6,29.97,NE,52,0.0,1.0,98,0.00,,,0.00,Wunderground v.1.15,2013-08-04 10:43:00,
2013-08-04 06:44:00,70.2,69.6,29.97,NE,52,0.0,1.0,98,0.00,,,0.00,Wunderground v.1.15,2013-08-04 10:44:00,
2013-08-04 06:45:00,70.1,69.5,29.97,NE,52,0.0,1.0,98,0.00,,,0.00,Wunderground v.1.15,2013-08-04 10:45:00,
2013-08-04 06:49:00,70.1,69.2,29.97,NE,52,0.0,1.0,97,0.00,,,0.00,Wunderground v.1.15,2013-08-04 10:49:00,
2013-08-04 06:50:00,70.0,69.1,29.97,NE,52,0.0,0.0,97,0.00,,,0.00,Wunderground v.1.15,2013-08-04 10:50:00,
2013-08-04 06:51:00,70.0,69.4,29.97,NE,52,0.0,0.0,98,0.00,,,0.00,Wunderground v.1.15,2013-08-04 10:51:00,
2013-08-04 06:54:00,70.0,69.4,29.97,NE,52,0.0,0.0,98,0.00,,,0.00,Wunderground v.1.15,2013-08-04 10:54:00,
2013-08-04 06:55:00,70.0,69.4,29.97,NE,52,0.0,0.0,98,0.00,,,0.00,Wunderground v.1.15,2013-08-04 10:55:00,
2013-08-04 06:56:00,70.0,69.4,29.97,NE,52,0.0,0.0,98,0.00,,,0.00,Wunderground v.1.15,2013-08-04 10:56:00,
2013-08-04 07:00:00,69.9,69.3,29.97,NE,52,0.0,0.0,98,0.00,,,0.00,Wunderground v.1.15,2013-08-04 11:00:00,
2013-08-04 07:01:00,69.9,69.3,29.97,NE,52,0.0,0.0,98,0.00,,,0.00,Wunderground v.1.15,2013-08-04 11:01:00,
2013-08-04 07:05:00,69.7,68.8,29.97,NE,52,0.0,0.0,97,0.00,,,0.00,Wunderground v.1.15,2013-08-04 11:05:00,
2013-08-04 07:06:00,69.7,68.8,29.97,NE,52,0.0,0.0,97,0.00,,,0.00,Wunderground v.1.15,2013-08-04 11:06:00,
2013-08-04 07:07:00,69.7,68.8,29.97,NE,52,0.0,0.0,97,0.00,,,0.00,Wunderground v.1.15,2013-08-04 11:07:00,
2013-08-04 07:10:00,69.6,68.7,29.97,NE,52,0.0,0.0,97,0.00,,,0.00,Wunderground v.1.15,2013-08-04 11:10:00,
2013-08-04 07:12:00,69.6,68.7,29.98,NE,52,0.0,0.0,97,0.00,,,0.00,Wunderground v.1.15,2013-08-04 11:12:00,
2013-08-04 07:13:00,69.6,68.7,29.98,NE,52,0.0,1.0,97,0.00,,,0.00,Wunderground v.1.15,2013-08-04 11:13:00,
2013-08-04 07:15:00,69.6,68.7,29.98,NE,52,0.0,1.0,97,0.00,,,0.00,Wunderground v.1.15,2013-08-04 11:15:00,
2013-08-04 07:16:00,69.6,69.0,29.98,NE,52,0.0,1.0,98,0.00,,,0.00,Wunderground v.1.15,2013-08-04 11:16:00,
2013-08-04 07:17:00,69.6,69.0,29.98,NE,52,0.0,1.0,98,0.00,,,0.00,Wunderground v.1.15,2013-08-04 11:17:00,
2013-08-04 07:18:00,69.6,69.0,29.98,NE,52,0.0,1.0,98,0.00,,,0.00,Wunderground v.1.15,2013-08-04 11:18:00,
2013-08-04 07:20:00,69.6,69.0,29.98,NE,52,0.0,0.0,98,0.00,,,0.00,Wunderground v.1.15,2013-08-04 11:20:00,
2013-08-04 07:22:00,69.6,68.7,29.98,NE,52,0.0,1.0,97,0.00,,,0.00,Wunderground v.1.15,2013-08-04 11:22:00,
2013-08-04 07:23:00,69.6,68.7,29.98,NE,52,0.0,1.0,97,0.00,,,0.00,Wunderground v.1.15,2013-08-04 11:23:00,
2013-08-04 07:25:00,69.6,69.0,29.98,NE,52,0.0,1.0,98,0.00,,,0.00,Wunderground v.1.15,2013-08-04 11:25:00,
2013-08-04 07:27:00,69.6,69.0,29.98,NE,52,0.0,1.0,98,0.00,,,0.00,Wunderground v.1.15,2013-08-04 11:27:00,
2013-08-04 07:28:00,69.7,69.1,29.98,NE,52,0.0,1.0,98,0.00,,,0.00,Wunderground v.1.15,2013-08-04 11:28:00,
2013-08-04 07:29:00,69.7,69.1,29.98,NE,52,0.0,1.0,98,0.00,,,0.00,Wunderground v.1.15,2013-08-04 11:29:00,
2013-08-04 07:31:00,69.8,69.2,29.98,NE,52,0.0,0.0,98,0.00,,,0.00,Wunderground v.1.15,2013-08-04 11:31:00,
2013-08-04 07:32:00,69.9,69.3,29.98,NE,52,0.0,0.0,98,0.00,,,0.00,Wunderground v.1.15,2013-08-04 11:32:00,
2013-08-04 07:33:00,69.9,69.3,29.98,NE,52,0.0,0.0,98,0.00,,,0.00,Wunderground v.1.15,2013-08-04 11:33:00,
2013-08-04 07:34:00,69.9,69.3,29.98,NE,52,0.0,0.0,98,0.00,,,0.00,Wunderground v.1.15,2013-08-04 11:34:00,
2013-08-04 07:37:00,70.0,69.4,29.99,NE,52,0.0,0.0,98,0.00,,,0.00,Wunderground v.1.15,2013-08-04 11:37:00,
2013-08-04 07:38:00,70.0,69.4,29.99,NE,52,0.0,0.0,98,0.00,,,0.00,Wunderground v.1.15,2013-08-04 11:38:00,
2013-08-04 07:39:00,70.1,69.5,29.99,NE,52,0.0,0.0,98,0.00,,,0.00,Wunderground v.1.15,2013-08-04 11:39:00,
2013-08-04 07:42:00,70.1,69.5,29.99,NE,52,0.0,1.0,98,0.00,,,0.00,Wunderground v.1.15,2013-08-04 11:42:00,
2013-08-04 07:43:00,70.2,69.6,29.99,NE,52,0.0,1.0,98,0.00,,,0.00,Wunderground v.1.15,2013-08-04 11:43:00,
2013-08-04 07:44:00,70.2,69.6,29.99,NE,52,0.0,1.0,98,0.00,,,0.00,Wunderground v.1.15,2013-08-04 11:44:00,
2013-08-04 07:47:00,70.2,69.6,29.99,NE,52,0.0,1.0,98,0.00,,,0.00,Wunderground v.1.15,2013-08-04 11:47:00,
2013-08-04 07:48:00,70.2,69.6,29.99,NE,52,0.0,1.0,98,0.00,,,0.00,Wunderground v.1.15,2013-08-04 11:48:00,
2013-08-04 07:49:00,70.2,69.6,29.99,NE,52,0.0,1.0,98,0.00,,,0.00,Wunderground v.1.15,2013-08-04 11:49:00,
2013-08-04 07:50:00,70.2,69.6,29.99,NE,52,0.0,0.0,98,0.00,,,0.00,Wunderground v.1.15,2013-08-04 11:50:00,
2013-08-04 07:52:00,70.2,69.6,29.99,NE,52,0.0,0.0,98,0.00,,,0.00,Wunderground v.1.15,2013-08-04 11:52:00,
2013-08-04 07:54:00,70.2,69.6,29.99,NE,52,0.0,0.0,98,0.00,,,0.00,Wunderground v.1.15,2013-08-04 11:54:00,
2013-08-04 07:55:00,70.2,69.6,29.99,NE,52,0.0,0.0,98,0.00,,,0.00,Wunderground v.1.15,2013-08-04 11:55:00,
2013-08-04 07:57:00,70.3,69.7,29.99,NE,52,0.0,0.0,98,0.00,,,0.00,Wunderground v.1.15,2013-08-04 11:57:00,
2013-08-04 07:59:00,70.3,69.7,29.99,NE,52,0.0,0.0,98,0.00,,,0.00,Wunderground v.1.15,2013-08-04 11:59:00,
2013-08-04 08:00:00,70.3,69.7,29.99,NE,52,0.0,0.0,98,0.00,,,0.00,Wunderground v.1.15,2013-08-04 12:00:00,
2013-08-04 08:01:00,70.3,69.7,29.99,NE,52,0.0,0.0,98,0.00,,,0.00,Wunderground v.1.15,2013-08-04 12:01:00,
2013-08-04 08:03:00,70.4,69.8,29.99,NE,52,0.0,0.0,98,0.00,,,0.00,Wunderground v.1.15,2013-08-04 12:03:00,
2013-08-04 08:04:00,70.5,69.9,29.99,NE,52,0.0,0.0,98,0.00,,,0.00,Wunderground v.1.15,2013-08-04 12:04:00,
2013-08-04 08:06:00,70.6,70.0,29.99,NE,52,0.0,0.0,98,0.00,,,0.00,Wunderground v.1.15,2013-08-04 12:06:00,
2013-08-04 08:08:00,70.6,70.0,29.99,NE,52,0.0,0.0,98,0.00,,,0.00,Wunderground v.1.15,2013-08-04 12:08:00,
2013-08-04 08:09:00,70.7,70.1,29.99,NE,52,0.0,0.0,98,0.00,,,0.00,Wunderground v.1.15,2013-08-04 12:09:00,
2013-08-04 08:11:00,70.7,70.1,29.99,NE,52,0.0,0.0,98,0.00,,,0.00,Wunderground v.1.15,2013-08-04 12:11:00,
2013-08-04 08:13:00,70.8,70.2,29.99,NE,52,0.0,0.0,98,0.00,,,0.00,Wunderground v.1.15,2013-08-04 12:13:00,
2013-08-04 08:14:00,70.8,70.2,29.99,NE,52,0.0,1.0,98,0.00,,,0.00,Wunderground v.1.15,2013-08-04 12:14:00,
2013-08-04 08:16:00,70.9,70.3,29.99,NE,52,0.0,1.0,98,0.00,,,0.00,Wunderground v.1.15,2013-08-04 12:16:00,
2013-08-04 08:18:00,70.9,70.3,30.00,NE,52,0.0,1.0,98,0.00,,,0.00,Wunderground v.1.15,2013-08-04 12:18:00,
2013-08-04 08:19:00,70.9,70.3,30.00,NE,52,0.0,1.0,98,0.00,,,0.00,Wunderground v.1.15,2013-08-04 12:19:00,
2013-08-04 08:20:00,70.9,70.3,30.00,NE,52,0.0,0.0,98,0.00,,,0.00,Wunderground v.1.15,2013-08-04 12:20:00,
2013-08-04 08:22:00,70.9,70.3,30.00,NE,52,0.0,0.0,98,0.00,,,0.00,Wunderground v.1.15,2013-08-04 12:22:00,
2013-08-04 08:24:00,70.9,70.3,30.00,NE,52,0.0,0.0,98,0.00,,,0.00,Wunderground v.1.15,2013-08-04 12:24:00,
2013-08-04 08:25:00,70.9,70.3,30.00,NE,52,0.0,0.0,98,0.00,,,0.00,Wunderground v.1.15,2013-08-04 12:25:00,
2013-08-04 08:27:00,71.0,70.4,30.00,NE,52,0.0,0.0,98,0.00,,,0.00,Wunderground v.1.15,2013-08-04 12:27:00,
2013-08-04 08:29:00,71.1,70.5,30.00,NE,52,0.0,0.0,98,0.00,,,0.00,Wunderground v.1.15,2013-08-04 12:29:00,
2013-08-04 08:30:00,71.1,70.5,30.00,NE,52,0.0,0.0,98,0.00,,,0.00,Wunderground v.1.15,2013-08-04 12:30:00,
2013-08-04 08:32:00,71.3,70.7,30.00,NE,52,0.0,0.0,98,0.00,,,0.00,Wunderground v.1.15,2013-08-04 12:32:00,
2013-08-04 08:34:00,71.4,70.8,30.00,NE,52,0.0,0.0,98,0.00,,,0.00,Wunderground v.1.15,2013-08-04 12:34:00,
2013-08-04 08:36:00,71.5,70.9,30.00,NE,52,1.0,1.0,98,0.00,,,0.00,Wunderground v.1.15,2013-08-04 12:36:00,
2013-08-04 08:37:00,71.5,70.9,30.00,NE,52,0.0,1.0,98,0.00,,,0.00,Wunderground v.1.15,2013-08-04 12:37:00,
2013-08-04 08:38:00,71.6,71.0,30.00,NE,52,0.0,1.0,98,0.00,,,0.00,Wunderground v.1.15,2013-08-04 12:38:00,
2013-08-04 08:40:00,71.6,71.0,30.00,NE,52,0.0,0.0,98,0.00,,,0.00,Wunderground v.1.15,2013-08-04 12:40:00,
2013-08-04 08:42:00,71.7,71.1,30.00,NE,52,0.0,0.0,98,0.00,,,0.00,Wunderground v.1.15,2013-08-04 12:42:00,
2013-08-04 08:43:00,71.7,71.1,30.00,NE,52,0.0,0.0,98,0.00,,,0.00,Wunderground v.1.15,2013-08-04 12:43:00,
2013-08-04 08:44:00,71.8,71.2,30.00,NE,52,0.0,0.0,98,0.00,,,0.00,Wunderground v.1.15,2013-08-04 12:44:00,
2013-08-04 08:45:00,71.8,71.2,30.00,NE,52,0.0,1.0,98,0.00,,,0.00,Wunderground v.1.15,2013-08-04 12:45:00,
2013-08-04 08:47:00,71.8,71.2,30.00,NE,52,0.0,1.0,98,0.00,,,0.00,Wunderground v.1.15,2013-08-04 12:47:00,
2013-08-04 08:48:00,71.9,71.3,30.00,NE,52,0.0,1.0,98,0.00,,,0.00,Wunderground v.1.15,2013-08-04 12:48:00,
2013-08-04 08:50:00,71.9,71.3,30.00,NE,52,0.0,0.0,98,0.00,,,0.00,Wunderground v.1.15,2013-08-04 12:50:00,
2013-08-04 08:52:00,71.9,71.3,30.00,NE,52,0.0,1.0,98,0.00,,,0.00,Wunderground v.1.15,2013-08-04 12:52:00,
2013-08-04 08:53:00,71.9,71.3,30.00,NE,52,0.0,1.0,98,0.00,,,0.00,Wunderground v.1.15,2013-08-04 12:53:00,
2013-08-04 08:55:00,71.9,71.3,30.00,NE,52,0.0,1.0,98,0.00,,,0.00,Wunderground v.1.15,2013-08-04 12:55:00,
2013-08-04 08:57:00,71.9,71.3,30.00,NE,52,0.0,1.0,98,0.00,,,0.00,Wunderground v.1.15,2013-08-04 12:57:00,
2013-08-04 08:58:00,71.9,71.3,30.00,NE,52,0.0,1.0,98,0.00,,,0.00,Wunderground v.1.15,2013-08-04 12:58:00,
2013-08-04 09:00:00,72.0,71.4,30.00,NE,52,0.0,1.0,98,0.00,,,0.00,Wunderground v.1.15,2013-08-04 13:00:00,
2013-08-04 09:02:00,72.1,71.5,30.00,NE,52,0.0,1.0,98,0.00,,,0.00,Wunderground v.1.15,2013-08-04 13:02:00,
2013-08-04 09:03:00,72.1,71.5,30.00,NE,52,0.0,1.0,98,0.00,,,0.00,Wunderground v.1.15,2013-08-04 13:03:00,
2013-08-04 09:04:00,72.2,71.6,30.00,NE,52,0.0,1.0,98,0.00,,,0.00,Wunderground v.1.15,2013-08-04 13:04:00,
2013-08-04 09:05:00,72.2,71.6,30.00,NE,52,0.0,1.0,98,0.00,,,0.00,Wunderground v.1.15,2013-08-04 13:05:00,
2013-08-04 09:08:00,72.3,71.7,30.00,NE,52,0.0,1.0,98,0.00,,,0.00,Wunderground v.1.15,2013-08-04 13:08:00,
2013-08-04 09:09:00,72.4,71.8,30.00,NE,52,0.0,1.0,98,0.00,,,0.00,Wunderground v.1.15,2013-08-04 13:09:00,
2013-08-04 09:10:00,72.4,71.8,30.00,NE,52,1.0,1.0,98,0.00,,,0.00,Wunderground v.1.15,2013-08-04 13:10:00,
2013-08-04 09:11:00,72.4,71.8,30.00,NE,52,1.0,1.0,98,0.00,,,0.00,Wunderground v.1.15,2013-08-04 13:11:00,
2013-08-04 09:13:00,72.4,71.5,30.00,NE,52,0.0,1.0,97,0.00,,,0.00,Wunderground v.1.15,2013-08-04 13:13:00,
2013-08-04 09:14:00,72.5,71.6,30.00,NE,52,0.0,1.0,97,0.00,,,0.00,Wunderground v.1.15,2013-08-04 13:14:00,
2013-08-04 09:16:00,72.6,71.7,30.00,NE,52,0.0,1.0,97,0.00,,,0.00,Wunderground v.1.15,2013-08-04 13:16:00,
2013-08-04 09:18:00,72.8,71.6,30.00,NE,52,0.0,2.0,96,0.00,,,0.00,Wunderground v.1.15,2013-08-04 13:18:00,
2013-08-04 09:19:00,73.0,71.8,30.00,NE,52,0.0,0.0,96,0.00,,,0.00,Wunderground v.1.15,2013-08-04 13:19:00,
2013-08-04 09:21:00,73.1,71.9,30.00,NE,52,0.0,1.0,96,0.00,,,0.00,Wunderground v.1.15,2013-08-04 13:21:00,
2013-08-04 09:23:00,73.5,72.3,29.99,NE,52,0.0,1.0,96,0.00,,,0.00,Wunderground v.1.15,2013-08-04 13:23:00,
2013-08-04 09:25:00,73.7,72.5,29.99,NE,52,0.0,1.0,96,0.00,,,0.00,Wunderground v.1.15,2013-08-04 13:25:00,
2013-08-04 09:26:00,73.9,72.4,29.99,NE,52,1.0,1.0,95,0.00,,,0.00,Wunderground v.1.15,2013-08-04 13:26:00,
2013-08-04 09:29:00,74.3,72.5,29.99,NE,52,0.0,1.0,94,0.00,,,0.00,Wunderground v.1.15,2013-08-04 13:29:00,
2013-08-04 09:30:00,74.5,72.7,29.99,NE,52,0.0,1.0,94,0.00,,,0.00,Wunderground v.1.15,2013-08-04 13:30:00,
2013-08-04 09:31:00,74.7,72.9,29.99,NE,52,0.0,1.0,94,0.00,,,0.00,Wunderground v.1.15,2013-08-04 13:31:00,
2013-08-04 09:32:00,74.8,72.6,29.99,NE,52,0.0,1.0,93,0.00,,,0.00,Wunderground v.1.15,2013-08-04 13:32:00,
2013-08-04 09:34:00,75.1,72.9,29.99,NE,52,0.0,1.0,93,0.00,,,0.00,Wunderground v.1.15,2013-08-04 13:34:00,
2013-08-04 09:35:00,75.2,72.7,29.99,NE,52,0.0,1.0,92,0.00,,,0.00,Wunderground v.1.15,2013-08-04 13:35:00,
2013-08-04 09:37:00,75.5,72.7,29.99,NE,52,0.0,1.0,91,0.00,,,0.00,Wunderground v.1.15,2013-08-04 13:37:00,
2013-08-04 09:38:00,75.5,72.7,29.99,NE,52,1.0,1.0,91,0.00,,,0.00,Wunderground v.1.15,2013-08-04 13:38:00,
2013-08-04 09:39:00,75.8,72.7,29.99,NE,52,0.0,0.0,90,0.00,,,0.00,Wunderground v.1.15,2013-08-04 13:39:00,
2013-08-04 09:40:00,75.8,72.7,29.99,NE,52,0.0,0.0,90,0.00,,,0.00,Wunderground v.1.15,2013-08-04 13:40:00,
2013-08-04 09:42:00,76.0,72.5,29.99,NE,52,1.0,2.0,89,0.00,,,0.00,Wunderground v.1.15,2013-08-04 13:42:00,
2013-08-04 09:43:00,76.1,72.6,29.99,NE,52,0.0,2.0,89,0.00,,,0.00,Wunderground v.1.15,2013-08-04 13:43:00,
2013-08-04 09:45:00,76.3,72.5,29.99,NE,52,1.0,2.0,88,0.00,,,0.00,Wunderground v.1.15,2013-08-04 13:45:00,
2013-08-04 09:47:00,76.5,72.7,30.00,NE,52,0.0,2.0,88,0.00,,,0.00,Wunderground v.1.15,2013-08-04 13:47:00,
2013-08-04 09:48:00,76.6,72.8,30.00,NE,52,0.0,2.0,88,0.00,,,0.00,Wunderground v.1.15,2013-08-04 13:48:00,
2013-08-04 09:50:00,76.8,73.0,30.00,NE,52,0.0,1.0,88,0.00,,,0.00,Wunderground v.1.15,2013-08-04 13:50:00,
2013-08-04 09:51:00,76.9,72.7,30.00,NE,52,1.0,1.0,87,0.00,,,0.00,Wunderground v.1.15,2013-08-04 13:51:00,
2013-08-04 09:53:00,77.0,72.8,30.00,NE,52,0.0,2.0,87,0.00,,,0.00,Wunderground v.1.15,2013-08-04 13:53:00,
2013-08-04 09:55:00,77.2,72.7,30.00,NE,52,2.0,2.0,86,0.00,,,0.00,Wunderground v.1.15,2013-08-04 13:55:00,
2013-08-04 09:56:00,77.3,72.8,30.00,NE,52,2.0,3.0,86,0.00,,,0.00,Wunderground v.1.15,2013-08-04 13:56:00,
2013-08-04 09:58:00,77.3,72.4,30.00,NE,52,0.0,3.0,85,0.00,,,0.00,Wunderground v.1.15,2013-08-04 13:58:00,
2013-08-04 10:00:00,77.5,72.6,30.00,NE,52,1.0,3.0,85,0.00,,,0.00,Wunderground v.1.15,2013-08-04 14:00:00,
2013-08-04 10:02:00,77.5,72.3,30.00,NE,52,0.0,3.0,84,0.00,,,0.00,Wunderground v.1.15,2013-08-04 14:02:00,
2013-08-04 10:03:00,77.6,72.4,30.00,NE,52,0.0,3.0,84,0.00,,,0.00,Wunderground v.1.15,2013-08-04 14:03:00,
2013-08-04 10:05:00,77.7,72.5,30.00,NE,52,2.0,3.0,84,0.00,,,0.00,Wunderground v.1.15,2013-08-04 14:05:00,
2013-08-04 10:08:00,77.8,72.9,30.00,NE,52,0.0,3.0,85,0.00,,,0.00,Wunderground v.1.15,2013-08-04 14:08:00,
2013-08-04 10:10:00,77.9,73.4,29.99,NE,52,0.0,1.0,86,0.00,,,0.00,Wunderground v.1.15,2013-08-04 14:10:00,
2013-08-04 10:13:00,78.0,72.8,29.99,NE,52,0.0,1.0,84,0.00,,,0.00,Wunderground v.1.15,2013-08-04 14:13:00,
2013-08-04 10:14:00,78.0,72.8,29.99,NE,52,0.0,1.0,84,0.00,,,0.00,Wunderground v.1.15,2013-08-04 14:14:00,
2013-08-04 10:15:00,78.0,72.8,29.99,NE,52,0.0,1.0,84,0.00,,,0.00,Wunderground v.1.15,2013-08-04 14:15:00,
2013-08-04 10:18:00,78.1,72.9,29.99,NE,52,0.0,1.0,84,0.00,,,0.00,Wunderground v.1.15,2013-08-04 14:18:00,
2013-08-04 10:19:00,78.1,73.6,29.99,NE,52,0.0,1.0,86,0.00,,,0.00,Wunderground v.1.15,2013-08-04 14:19:00,
2013-08-04 10:20:00,78.1,73.2,29.99,NE,52,1.0,1.0,85,0.00,,,0.00,Wunderground v.1.15,2013-08-04 14:20:00,
2013-08-04 10:24:00,78.3,73.1,29.99,NE,52,1.0,2.0,84,0.00,,,0.00,Wunderground v.1.15,2013-08-04 14:24:00,
2013-08-04 10:25:00,78.3,73.1,29.99,NE,52,3.0,3.0,84,0.00,,,0.00,Wunderground v.1.15,2013-08-04 14:25:00,
2013-08-04 10:26:00,78.3,72.3,30.00,NE,52,0.0,3.0,82,0.00,,,0.00,Wunderground v.1.15,2013-08-04 14:26:00,
2013-08-04 10:29:00,78.3,73.4,29.99,NE,52,0.0,3.0,85,0.00,,,0.00,Wunderground v.1.15,2013-08-04 14:29:00,
2013-08-04 10:30:00,78.4,73.5,29.99,NE,52,0.0,1.0,85,0.00,,,0.00,Wunderground v.1.15,2013-08-04 14:30:00,
2013-08-04 10:31:00,78.6,73.7,29.99,NE,52,0.0,1.0,85,0.00,,,0.00,Wunderground v.1.15,2013-08-04 14:31:00,
2013-08-04 10:34:00,78.7,74.2,29.99,NE,52,0.0,1.0,86,0.00,,,0.00,Wunderground v.1.15,2013-08-04 14:34:00,
2013-08-04 10:35:00,78.8,73.6,29.99,NE,52,0.0,1.0,84,0.00,,,0.00,Wunderground v.1.15,2013-08-04 14:35:00,
2013-08-04 10:37:00,79.1,73.5,29.98,NE,52,1.0,2.0,83,0.00,,,0.00,Wunderground v.1.15,2013-08-04 14:37:00,
2013-08-04 10:40:00,79.4,73.8,29.98,NE,52,2.0,2.0,83,0.00,,,0.00,Wunderground v.1.15,2013-08-04 14:40:00,
2013-08-04 10:42:00,79.6,73.6,29.98,NE,52,0.0,2.0,82,0.00,,,0.00,Wunderground v.1.15,2013-08-04 14:42:00,
2013-08-04 10:45:00,79.7,73.3,29.98,NE,52,2.0,2.0,81,0.00,,,0.00,Wunderground v.1.15,2013-08-04 14:45:00,
2013-08-04 10:47:00,79.8,73.8,29.99,NE,52,0.0,2.0,82,0.00,,,0.00,Wunderground v.1.15,2013-08-04 14:47:00,
2013-08-04 10:50:00,79.8,73.8,29.99,NE,52,0.0,1.0,82,0.00,,,0.00,Wunderground v.1.15,2013-08-04 14:50:00,
2013-08-04 10:52:00,79.8,73.8,29.99,NE,52,0.0,1.0,82,0.00,,,0.00,Wunderground v.1.15,2013-08-04 14:52:00,
2013-08-04 10:55:00,79.9,73.9,29.99,NE,52,0.0,1.0,82,0.00,,,0.00,Wunderground v.1.15,2013-08-04 14:55:00,
2013-08-04 10:56:00,79.9,74.3,29.99,NE,52,1.0,2.0,83,0.00,,,0.00,Wunderground v.1.15,2013-08-04 14:56:00,
2013-08-04 10:58:00,80.0,74.0,29.99,NE,52,0.0,3.0,82,0.00,,,0.00,Wunderground v.1.15,2013-08-04 14:58:00,
2013-08-04 11:00:00,80.1,74.5,29.99,NE,52,0.0,1.0,83,0.00,,,0.00,Wunderground v.1.15,2013-08-04 15:00:00,
2013-08-04 11:01:00,80.1,74.5,29.99,NE,52,0.0,1.0,83,0.00,,,0.00,Wunderground v.1.15,2013-08-04 15:01:00,
2013-08-04 11:02:00,80.1,74.5,29.99,NE,52,1.0,1.0,83,0.00,,,0.00,Wunderground v.1.15,2013-08-04 15:02:00,
2013-08-04 11:03:00,80.2,73.8,29.99,NE,52,1.0,2.0,81,0.00,,,0.00,Wunderground v.1.15,2013-08-04 15:03:00,
2013-08-04 11:05:00,80.4,75.1,29.99,NE,52,0.0,2.0,84,0.00,,,0.00,Wunderground v.1.15,2013-08-04 15:05:00,
2013-08-04 11:06:00,80.4,75.1,29.99,NE,52,1.0,2.0,84,0.00,,,0.00,Wunderground v.1.15,2013-08-04 15:06:00,
2013-08-04 11:07:00,80.6,74.2,29.99,NE,52,1.0,2.0,81,0.00,,,0.00,Wunderground v.1.15,2013-08-04 15:07:00,
2013-08-04 11:08:00,80.7,74.0,29.99,NE,52,1.0,4.0,80,0.00,,,0.00,Wunderground v.1.15,2013-08-04 15:08:00,
2013-08-04 11:11:00,81.0,74.2,29.99,NE,52,1.0,1.0,80,0.00,,,0.00,Wunderground v.1.15,2013-08-04 15:11:00,
2013-08-04 11:13:00,81.2,74.4,29.99,NE,52,0.0,2.0,80,0.00,,,0.00,Wunderground v.1.15,2013-08-04 15:13:00,
2013-08-04 11:16:00,81.6,74.5,29.99,NE,52,1.0,3.0,79,0.00,,,0.00,Wunderground v.1.15,2013-08-04 15:16:00,
2013-08-04 11:18:00,81.8,74.3,29.99,NE,52,3.0,4.0,78,0.00,,,0.00,Wunderground v.1.15,2013-08-04 15:18:00,
2013-08-04 11:21:00,81.9,74.0,30.00,NE,52,2.0,2.0,77,0.00,,,0.00,Wunderground v.1.15,2013-08-04 15:21:00,
2013-08-04 11:23:00,82.1,74.2,30.00,NE,52,0.0,2.0,77,0.00,,,0.00,Wunderground v.1.15,2013-08-04 15:23:00,
2013-08-04 11:26:00,82.3,74.0,30.00,NE,52,4.0,4.0,76,0.00,,,0.00,Wunderground v.1.15,2013-08-04 15:26:00,
2013-08-04 11:27:00,82.2,73.5,30.00,NE,50,2.0,5.0,75,0.00,,,0.00,Wunderground v.1.15,2013-08-04 15:27:00,
2013-08-04 11:28:00,82.1,74.2,30.00,NE,49,1.0,5.0,77,0.00,,,0.00,Wunderground v.1.15,2013-08-04 15:28:00,
2013-08-04 11:29:00,82.1,74.2,30.00,NE,50,2.0,5.0,77,0.00,,,0.00,Wunderground v.1.15,2013-08-04 15:29:00,
2013-08-04 11:31:00,82.0,74.1,30.00,NE,49,2.0,2.0,77,0.00,,,0.00,Wunderground v.1.15,2013-08-04 15:31:00,
2013-08-04 11:32:00,81.9,74.0,30.00,NE,49,1.0,2.0,77,0.00,,,0.00,Wunderground v.1.15,2013-08-04 15:32:00,
2013-08-04 11:33:00,81.9,74.4,30.00,NE,50,2.0,2.0,78,0.00,,,0.00,Wunderground v.1.15,2013-08-04 15:33:00,
2013-08-04 11:34:00,81.8,74.3,30.00,NE,50,1.0,4.0,78,0.00,,,0.00,Wunderground v.1.15,2013-08-04 15:34:00,
2013-08-04 11:36:00,81.9,75.5,30.00,NE,50,0.0,4.0,81,0.00,,,0.00,Wunderground v.1.15,2013-08-04 15:36:00,
2013-08-04 11:37:00,81.9,75.1,30.00,NE,50,1.0,4.0,80,0.00,,,0.00,Wunderground v.1.15,2013-08-04 15:37:00,
2013-08-04 11:38:00,81.9,74.7,30.00,NE,50,1.0,4.0,79,0.00,,,0.00,Wunderground v.1.15,2013-08-04 15:38:00,
2013-08-04 11:39:00,81.9,74.4,30.00,NE,49,1.0,4.0,78,0.00,,,0.00,Wunderground v.1.15,2013-08-04 15:39:00,
2013-08-04 11:41:00,82.0,73.7,30.00,NE,50,0.0,3.0,76,0.00,,,0.00,Wunderground v.1.15,2013-08-04 15:41:00,
2013-08-04 11:42:00,82.1,74.2,30.00,NE,50,1.0,3.0,77,0.00,,,0.00,Wunderground v.1.15,2013-08-04 15:42:00,
2013-08-04 11:44:00,82.2,74.3,30.00,NE,50,2.0,3.0,77,0.00,,,0.00,Wunderground v.1.15,2013-08-04 15:44:00,
2013-08-04 11:45:00,82.3,73.6,30.00,NE,50,3.0,4.0,75,0.00,,,0.00,Wunderground v.1.15,2013-08-04 15:45:00,
2013-08-04 11:47:00,82.4,74.1,30.00,NE,49,1.0,4.0,76,0.00,,,0.00,Wunderground v.1.15,2013-08-04 15:47:00,
2013-08-04 11:48:00,82.5,74.2,30.00,NE,49,1.0,4.0,76,0.00,,,0.00,Wunderground v.1.15,2013-08-04 15:48:00,
2013-08-04 11:49:00,82.6,74.3,30.00,NE,50,2.0,4.0,76,0.00,,,0.00,Wunderground v.1.15,2013-08-04 15:49:00,
2013-08-04 11:50:00,82.5,73.8,30.00,NE,49,2.0,6.0,75,0.00,,,0.00,Wunderground v.1.15,2013-08-04 15:50:00,
2013-08-04 11:52:00,82.6,75.8,30.00,NE,49,2.0,6.0,80,0.00,,,0.00,Wunderground v.1.15,2013-08-04 15:52:00,
2013-08-04 11:53:00,82.7,75.1,30.00,NE,50,0.0,6.0,78,0.00,,,0.00,Wunderground v.1.15,2013-08-04 15:53:00,
2013-08-04 11:54:00,82.8,75.2,30.00,NE,49,0.0,6.0,78,0.00,,,0.00,Wunderground v.1.15,2013-08-04 15:54:00,
2013-08-04 11:55:00,82.9,75.3,30.00,NE,50,0.0,6.0,78,0.00,,,0.00,Wunderground v.1.15,2013-08-04 15:55:00,
2013-08-04 11:57:00,83.1,73.9,30.00,NE,50,1.0,6.0,74,0.00,,,0.00,Wunderground v.1.15,2013-08-04 15:57:00,
2013-08-04 11:58:00,83.1,73.1,30.00,NE,49,0.0,6.0,72,0.00,,,0.00,Wunderground v.1.15,2013-08-04 15:58:00,
2013-08-04 11:59:00,83.1,73.1,30.00,NE,50,0.0,6.0,72,0.00,,,0.00,Wunderground v.1.15,2013-08-04 15:59:00,
2013-08-04 12:00:00,83.1,75.1,30.00,NE,49,0.0,2.0,77,0.00,,,0.00,Wunderground v.1.15,2013-08-04 16:00:00,
2013-08-04 12:02:00,83.2,74.8,30.00,NE,49,0.0,2.0,76,0.00,,,0.00,Wunderground v.1.15,2013-08-04 16:02:00,
2013-08-04 12:03:00,83.2,74.4,30.00,NE,49,1.0,2.0,75,0.00,,,0.00,Wunderground v.1.15,2013-08-04 16:03:00,
2013-08-04 12:04:00,83.2,74.4,30.00,NE,50,1.0,2.0,75,0.00,,,0.00,Wunderground v.1.15,2013-08-04 16:04:00,
2013-08-04 12:05:00,83.1,74.4,30.00,NE,50,1.0,3.0,75,0.00,,,0.00,Wunderground v.1.15,2013-08-04 16:05:00,
2013-08-04 12:07:00,82.9,73.8,30.00,NE,49,1.0,3.0,74,0.00,,,0.00,Wunderground v.1.15,2013-08-04 16:07:00,
2013-08-04 12:08:00,82.9,74.6,30.00,NE,49,0.0,3.0,76,0.00,,,0.00,Wunderground v.1.15,2013-08-04 16:08:00,
2013-08-04 12:09:00,82.9,74.6,30.00,NE,50,1.0,3.0,76,0.00,,,0.00,Wunderground v.1.15,2013-08-04 16:09:00,
2013-08-04 12:11:00,82.9,74.6,30.00,NE,50,0.0,1.0,76,0.00,,,0.00,Wunderground v.1.15,2013-08-04 16:11:00,
2013-08-04 12:13:00,82.9,73.8,30.00,NE,50,1.0,3.0,74,0.00,,,0.00,Wunderground v.1.15,2013-08-04 16:13:00,
2013-08-04 12:14:00,82.8,73.7,30.00,NE,50,1.0,3.0,74,0.00,,,0.00,Wunderground v.1.15,2013-08-04 16:14:00,
2013-08-04 12:16:00,82.7,73.6,30.00,NE,50,3.0,3.0,74,0.00,,,0.00,Wunderground v.1.15,2013-08-04 16:16:00,
2013-08-04 12:18:00,82.6,73.5,29.99,NE,49,2.0,3.0,74,0.00,,,0.00,Wunderground v.1.15,2013-08-04 16:18:00,
2013-08-04 12:19:00,82.5,74.2,30.00,NE,49,0.0,1.0,76,0.00,,,0.00,Wunderground v.1.15,2013-08-04 16:19:00,
2013-08-04 12:20:00,82.5,74.2,30.00,NE,49,0.0,1.0,76,0.00,,,0.00,Wunderground v.1.15,2013-08-04 16:20:00,
2013-08-04 12:23:00,82.2,73.9,30.00,NE,50,1.0,2.0,76,0.00,,,0.00,Wunderground v.1.15,2013-08-04 16:23:00,
2013-08-04 12:24:00,82.1,74.2,30.00,NE,49,0.0,2.0,77,0.00,,,0.00,Wunderground v.1.15,2013-08-04 16:24:00,
2013-08-04 12:25:00,82.1,75.3,30.00,NE,50,1.0,2.0,80,0.00,,,0.00,Wunderground v.1.15,2013-08-04 16:25:00,
2013-08-04 12:28:00,82.1,73.0,29.99,NE,50,1.0,4.0,74,0.00,,,0.00,Wunderground v.1.15,2013-08-04 16:28:00,
2013-08-04 12:29:00,82.1,73.8,29.99,NE,50,0.0,4.0,76,0.00,,,0.00,Wunderground v.1.15,2013-08-04 16:29:00,
2013-08-04 12:30:00,82.2,73.5,29.99,NE,50,0.0,2.0,75,0.00,,,0.00,Wunderground v.1.15,2013-08-04 16:30:00,
2013-08-04 12:33:00,82.3,74.0,29.99,NE,49,0.0,2.0,76,0.00,,,0.00,Wunderground v.1.15,2013-08-04 16:33:00,
2013-08-04 12:34:00,82.5,75.3,29.99,NE,50,0.0,2.0,79,0.00,,,0.00,Wunderground v.1.15,2013-08-04 16:34:00,
2013-08-04 12:35:00,82.6,74.3,29.99,NE,50,3.0,3.0,76,0.00,,,0.00,Wunderground v.1.15,2013-08-04 16:35:00,
2013-08-04 12:36:00,82.7,74.8,29.99,NE,50,0.0,3.0,77,0.00,,,0.00,Wunderground v.1.15,2013-08-04 16:36:00,
2013-08-04 12:38:00,82.9,74.6,29.99,NE,50,1.0,3.0,76,0.00,,,0.00,Wunderground v.1.15,2013-08-04 16:38:00,
2013-08-04 12:39:00,82.9,72.1,29.99,NE,50,0.0,3.0,70,0.00,,,0.00,Wunderground v.1.15,2013-08-04 16:39:00,
2013-08-04 12:40:00,82.8,73.3,29.99,NE,49,1.0,2.0,73,0.00,,,0.00,Wunderground v.1.15,2013-08-04 16:40:00,
2013-08-04 12:41:00,82.8,72.8,29.99,NE,49,0.0,2.0,72,0.00,,,0.00,Wunderground v.1.15,2013-08-04 16:41:00,
2013-08-04 12:42:00,82.6,73.1,29.99,NE,50,2.0,3.0,73,0.00,,,0.00,Wunderground v.1.15,2013-08-04 16:42:00,
2013-08-04 12:44:00,82.5,73.0,29.99,NE,50,1.0,3.0,73,0.00,,,0.00,Wunderground v.1.15,2013-08-04 16:44:00,
2013-08-04 12:45:00,82.4,73.3,29.99,NE,49,1.0,3.0,74,0.00,,,0.00,Wunderground v.1.15,2013-08-04 16:45:00,
2013-08-04 12:46:00,82.3,73.6,29.99,NE,50,0.0,3.0,75,0.00,,,0.00,Wunderground v.1.15,2013-08-04 16:46:00,
2013-08-04 12:47:00,82.3,73.6,29.99,NE,50,0.0,3.0,75,0.00,,,0.00,Wunderground v.1.15,2013-08-04 16:47:00,
2013-08-04 12:48:00,82.3,74.7,29.99,NE,50,4.0,4.0,78,0.00,,,0.00,Wunderground v.1.15,2013-08-04 16:48:00,
2013-08-04 12:49:00,82.3,73.2,29.99,NE,50,1.0,4.0,74,0.00,,,0.00,Wunderground v.1.15,2013-08-04 16:49:00,
2013-08-04 12:50:00,82.4,73.3,29.99,NE,50,3.0,4.0,74,0.00,,,0.00,Wunderground v.1.15,2013-08-04 16:50:00,
2013-08-04 12:52:00,82.6,74.3,29.99,NE,50,7.0,7.0,76,0.00,,,0.00,Wunderground v.1.15,2013-08-04 16:52:00,
2013-08-04 12:53:00,82.7,73.2,29.99,NE,49,1.0,7.0,73,0.00,,,0.00,Wunderground v.1.15,2013-08-04 16:53:00,
2013-08-04 12:54:00,82.8,72.0,29.99,NE,49,0.0,7.0,70,0.00,,,0.00,Wunderground v.1.15,2013-08-04 16:54:00,
2013-08-04 12:55:00,82.9,72.9,29.99,NE,49,1.0,7.0,72,0.00,,,0.00,Wunderground v.1.15,2013-08-04 16:55:00,
2013-08-04 12:57:00,83.0,73.4,29.98,NE,50,1.0,7.0,73,0.00,,,0.00,Wunderground v.1.15,2013-08-04 16:57:00,
2013-08-04 12:58:00,83.1,74.4,29.99,NE,49,1.0,7.0,75,0.00,,,0.00,Wunderground v.1.15,2013-08-04 16:58:00,
2013-08-04 12:59:00,83.2,73.6,29.98,NE,50,1.0,2.0,73,0.00,,,0.00,Wunderground v.1.15,2013-08-04 16:59:00,
2013-08-04 13:00:00,83.2,72.0,29.98,NE,49,1.0,2.0,69,0.00,,,0.00,Wunderground v.1.15,2013-08-04 17:00:00,
2013-08-04 13:02:00,83.3,72.5,29.98,NE,49,1.0,2.0,70,0.00,,,0.00,Wunderground v.1.15,2013-08-04 17:02:00,
2013-08-04 13:03:00,83.3,72.1,29.98,NE,52,1.0,4.0,69,0.00,,,0.00,Wunderground v.1.15,2013-08-04 17:03:00,
2013-08-04 13:04:00,83.3,72.5,29.98,NE,52,2.0,4.0,70,0.00,,,0.00,Wunderground v.1.15,2013-08-04 17:04:00,
2013-08-04 13:05:00,83.3,73.7,29.98,NE,52,0.0,4.0,73,0.00,,,0.00,Wunderground v.1.15,2013-08-04 17:05:00,
2013-08-04 13:08:00,83.4,73.0,29.98,NE,52,0.0,4.0,71,0.00,,,0.00,Wunderground v.1.15,2013-08-04 17:08:00,
2013-08-04 13:10:00,83.5,72.7,29.99,NE,52,0.0,2.0,70,0.00,,,0.00,Wunderground v.1.15,2013-08-04 17:10:00,
2013-08-04 13:11:00,83.6,72.3,29.98,NE,52,1.0,2.0,69,0.00,,,0.00,Wunderground v.1.15,2013-08-04 17:11:00,
2013-08-04 13:13:00,83.7,71.6,29.98,NE,52,2.0,6.0,67,0.00,,,0.00,Wunderground v.1.15,2013-08-04 17:13:00,
2013-08-04 13:15:00,83.9,73.9,29.98,NE,52,1.0,6.0,72,0.00,,,0.00,Wunderground v.1.15,2013-08-04 17:15:00,
2013-08-04 13:16:00,84.0,74.4,29.98,NE,52,1.0,6.0,73,0.00,,,0.00,Wunderground v.1.15,2013-08-04 17:16:00,
2013-08-04 13:18:00,84.2,72.5,29.98,NE,52,0.0,6.0,68,0.00,,,0.00,Wunderground v.1.15,2013-08-04 17:18:00,
2013-08-04 13:20:00,84.4,74.0,29.98,NE,52,2.0,2.0,71,0.00,,,0.00,Wunderground v.1.15,2013-08-04 17:20:00,
2013-08-04 13:21:00,84.5,72.3,29.98,NE,52,2.0,3.0,67,0.00,,,0.00,Wunderground v.1.15,2013-08-04 17:21:00,
2013-08-04 13:23:00,84.5,71.4,29.98,NE,52,0.0,4.0,65,0.00,,,0.00,Wunderground v.1.15,2013-08-04 17:23:00,
2013-08-04 13:25:00,84.6,73.3,29.98,NE,52,0.0,4.0,69,0.00,,,0.00,Wunderground v.1.15,2013-08-04 17:25:00,
2013-08-04 13:26:00,84.5,73.2,29.98,NE,52,1.0,4.0,69,0.00,,,0.00,Wunderground v.1.15,2013-08-04 17:26:00,
2013-08-04 13:28:00,84.3,70.8,29.98,NE,52,1.0,4.0,64,0.00,,,0.00,Wunderground v.1.15,2013-08-04 17:28:00,
2013-08-04 13:30:00,84.2,72.5,29.98,NE,52,2.0,2.0,68,0.00,,,0.00,Wunderground v.1.15,2013-08-04 17:30:00,
2013-08-04 13:31:00,84.3,72.6,29.98,NE,52,3.0,3.0,68,0.00,,,0.00,Wunderground v.1.15,2013-08-04 17:31:00,
2013-08-04 13:33:00,84.3,73.4,29.98,NE,52,2.0,3.0,70,0.00,,,0.00,Wunderground v.1.15,2013-08-04 17:33:00,
2013-08-04 13:35:00,84.5,74.9,29.98,NE,52,2.0,3.0,73,0.00,,,0.00,Wunderground v.1.15,2013-08-04 17:35:00,
2013-08-04 13:36:00,84.6,71.5,29.98,NE,52,2.0,4.0,65,0.00,,,0.00,Wunderground v.1.15,2013-08-04 17:36:00,
2013-08-04 13:39:00,84.6,73.3,29.98,NE,52,1.0,4.0,69,0.00,,,0.00,Wunderground v.1.15,2013-08-04 17:39:00,
2013-08-04 13:40:00,84.7,72.1,29.98,NE,55,4.0,4.0,66,0.00,,,0.00,Wunderground v.1.15,2013-08-04 17:40:00,
2013-08-04 13:42:00,84.7,72.1,29.98,NE,55,2.0,4.0,66,0.00,,,0.00,Wunderground v.1.15,2013-08-04 17:42:00,
2013-08-04 13:44:00,84.6,71.5,29.98,NE,55,1.0,5.0,65,0.00,,,0.00,Wunderground v.1.15,2013-08-04 17:44:00,
2013-08-04 13:46:00,84.5,71.9,29.98,NE,55,4.0,5.0,66,0.00,,,0.00,Wunderground v.1.15,2013-08-04 17:46:00,
2013-08-04 13:48:00,84.3,73.0,29.98,NE,55,1.0,5.0,69,0.00,,,0.00,Wunderground v.1.15,2013-08-04 17:48:00,
2013-08-04 13:49:00,84.3,72.1,29.98,NE,55,2.0,5.0,67,0.00,,,0.00,Wunderground v.1.15,2013-08-04 17:49:00,
2013-08-04 13:50:00,84.3,73.0,29.98,NE,55,1.0,2.0,69,0.00,,,0.00,Wunderground v.1.15,2013-08-04 17:50:00,
2013-08-04 13:51:00,84.3,73.0,29.98,NE,55,1.0,2.0,69,0.00,,,0.00,Wunderground v.1.15,2013-08-04 17:51:00,
2013-08-04 13:52:00,84.3,71.2,29.97,NE,55,0.0,3.0,65,0.00,,,0.00,Wunderground v.1.15,2013-08-04 17:52:00,
2013-08-04 13:53:00,84.3,72.6,29.97,NE,55,2.0,3.0,68,0.00,,,0.00,Wunderground v.1.15,2013-08-04 17:53:00,
2013-08-04 13:54:00,84.3,72.1,29.98,NE,55,1.0,3.0,67,0.00,,,0.00,Wunderground v.1.15,2013-08-04 17:54:00,
2013-08-04 13:55:00,84.4,72.7,29.98,NE,55,1.0,3.0,68,0.00,,,0.00,Wunderground v.1.15,2013-08-04 17:55:00,
2013-08-04 13:56:00,84.4,73.5,29.98,NE,55,1.0,3.0,70,0.00,,,0.00,Wunderground v.1.15,2013-08-04 17:56:00,
2013-08-04 13:57:00,84.4,72.2,29.98,NE,55,4.0,4.0,67,0.00,,,0.00,Wunderground v.1.15,2013-08-04 17:57:00,
2013-08-04 13:58:00,84.3,72.1,29.98,NE,55,0.0,4.0,67,0.00,,,0.00,Wunderground v.1.15,2013-08-04 17:58:00,
2013-08-04 13:59:00,84.3,71.2,29.97,NE,55,1.0,1.0,65,0.00,,,0.00,Wunderground v.1.15,2013-08-04 17:59:00,
2013-08-04 14:00:00,84.3,71.7,29.97,NE,55,2.0,2.0,66,0.00,,,0.00,Wunderground v.1.15,2013-08-04 18:00:00,
2013-08-04 14:02:00,84.3,71.2,29.98,NE,55,1.0,2.0,65,0.00,,,0.00,Wunderground v.1.15,2013-08-04 18:02:00,
2013-08-04 14:03:00,84.2,72.0,29.97,NE,55,2.0,2.0,67,0.00,,,0.00,Wunderground v.1.15,2013-08-04 18:03:00,
2013-08-04 14:05:00,84.1,72.4,29.97,NE,55,0.0,3.0,68,0.00,,,0.00,Wunderground v.1.15,2013-08-04 18:05:00,
2013-08-04 14:07:00,84.0,71.9,29.97,NE,55,0.0,3.0,67,0.00,,,0.00,Wunderground v.1.15,2013-08-04 18:07:00,
2013-08-04 14:08:00,84.0,73.2,29.97,NE,55,0.0,3.0,70,0.00,,,0.00,Wunderground v.1.15,2013-08-04 18:08:00,
2013-08-04 14:10:00,84.0,71.4,29.97,NE,55,0.0,4.0,66,0.00,,,0.00,Wunderground v.1.15,2013-08-04 18:10:00,
2013-08-04 14:12:00,84.0,71.4,29.97,ENE,59,1.0,6.0,66,0.00,,,0.00,Wunderground v.1.15,2013-08-04 18:12:00,
2013-08-04 14:13:00,84.1,71.1,29.97,ENE,59,1.0,6.0,65,0.00,,,0.00,Wunderground v.1.15,2013-08-04 18:13:00,
2013-08-04 14:15:00,84.1,70.1,29.97,ENE,59,2.0,6.0,63,0.00,,,0.00,Wunderground v.1.15,2013-08-04 18:15:00,
2013-08-04 14:16:00,84.2,71.2,29.97,ENE,59,3.0,6.0,65,0.00,,,0.00,Wunderground v.1.15,2013-08-04 18:16:00,
2013-08-04 14:17:00,84.3,70.3,29.97,ENE,59,1.0,6.0,63,0.00,,,0.00,Wunderground v.1.15,2013-08-04 18:17:00,
2013-08-04 14:18:00,84.4,70.9,29.97,ENE,59,1.0,6.0,64,0.00,,,0.00,Wunderground v.1.15,2013-08-04 18:18:00,
2013-08-04 14:19:00,84.4,70.9,29.97,ENE,59,1.0,6.0,64,0.00,,,0.00,Wunderground v.1.15,2013-08-04 18:19:00,
2013-08-04 14:20:00,84.6,72.4,29.97,ENE,59,0.0,1.0,67,0.00,,,0.00,Wunderground v.1.15,2013-08-04 18:20:00,
2013-08-04 14:21:00,84.7,73.0,29.97,ENE,59,0.0,1.0,68,0.00,,,0.00,Wunderground v.1.15,2013-08-04 18:21:00,
2013-08-04 14:23:00,84.8,71.7,29.97,ENE,59,0.0,2.0,65,0.00,,,0.00,Wunderground v.1.15,2013-08-04 18:23:00,
2013-08-04 14:24:00,85.0,71.9,29.97,ENE,59,1.0,2.0,65,0.00,,,0.00,Wunderground v.1.15,2013-08-04 18:24:00,
2013-08-04 14:25:00,85.1,72.5,29.97,ENE,59,1.0,2.0,66,0.00,,,0.00,Wunderground v.1.15,2013-08-04 18:25:00,
2013-08-04 14:26:00,85.2,72.1,29.97,ENE,59,2.0,2.0,65,0.00,,,0.00,Wunderground v.1.15,2013-08-04 18:26:00,
2013-08-04 14:28:00,85.3,74.0,29.97,ENE,59,2.0,2.0,69,0.00,,,0.00,Wunderground v.1.15,2013-08-04 18:28:00,
2013-08-04 14:29:00,85.3,71.7,29.97,ENE,59,2.0,3.0,64,0.00,,,0.00,Wunderground v.1.15,2013-08-04 18:29:00,
2013-08-04 14:30:00,85.3,72.2,29.97,ENE,59,1.0,3.0,65,0.00,,,0.00,Wunderground v.1.15,2013-08-04 18:30:00,
2013-08-04 14:32:00,85.3,71.3,29.97,ENE,59,1.0,3.0,63,0.00,,,0.00,Wunderground v.1.15,2013-08-04 18:32:00,
2013-08-04 14:33:00,85.2,71.2,29.97,ENE,59,1.0,4.0,63,0.00,,,0.00,Wunderground v.1.15,2013-08-04 18:33:00,
2013-08-04 14:34:00,85.1,71.1,29.97,ENE,59,0.0,4.0,63,0.00,,,0.00,Wunderground v.1.15,2013-08-04 18:34:00,
2013-08-04 14:35:00,85.0,71.9,29.97,ENE,59,1.0,4.0,65,0.00,,,0.00,Wunderground v.1.15,2013-08-04 18:35:00,
2013-08-04 14:37:00,84.9,70.4,29.97,ENE,59,0.0,4.0,62,0.00,,,0.00,Wunderground v.1.15,2013-08-04 18:37:00,
2013-08-04 14:38:00,84.9,73.6,29.97,ENE,61,4.0,4.0,69,0.00,,,0.00,Wunderground v.1.15,2013-08-04 18:38:00,
2013-08-04 14:39:00,84.9,70.9,29.97,ENE,61,2.0,4.0,63,0.00,,,0.00,Wunderground v.1.15,2013-08-04 18:39:00,
2013-08-04 14:41:00,84.7,70.7,29.97,ENE,61,1.0,2.0,63,0.00,,,0.00,Wunderground v.1.15,2013-08-04 18:41:00,
2013-08-04 14:42:00,84.5,71.0,29.97,ENE,61,1.0,2.0,64,0.00,,,0.00,Wunderground v.1.15,2013-08-04 18:42:00,
2013-08-04 14:44:00,84.3,72.1,29.97,ENE,61,0.0,2.0,67,0.00,,,0.00,Wunderground v.1.15,2013-08-04 18:44:00,
2013-08-04 14:47:00,83.7,71.1,29.97,ENE,61,1.0,3.0,66,0.00,,,0.00,Wunderground v.1.15,2013-08-04 18:47:00,
2013-08-04 14:48:00,83.7,70.2,29.97,ENE,61,0.0,3.0,64,0.00,,,0.00,Wunderground v.1.15,2013-08-04 18:48:00,
2013-08-04 14:49:00,83.6,71.0,29.97,ENE,61,2.0,3.0,66,0.00,,,0.00,Wunderground v.1.15,2013-08-04 18:49:00,
2013-08-04 14:52:00,83.5,71.8,29.97,ENE,61,2.0,3.0,68,0.00,,,0.00,Wunderground v.1.15,2013-08-04 18:52:00,
2013-08-04 14:53:00,83.5,71.8,29.97,ENE,61,1.0,3.0,68,0.00,,,0.00,Wunderground v.1.15,2013-08-04 18:53:00,
2013-08-04 14:54:00,83.5,71.8,29.97,ENE,61,0.0,3.0,68,0.00,,,0.00,Wunderground v.1.15,2013-08-04 18:54:00,
2013-08-04 14:57:00,83.8,69.9,29.97,ENE,61,1.0,4.0,63,0.00,,,0.00,Wunderground v.1.15,2013-08-04 18:57:00,
2013-08-04 14:58:00,83.8,69.9,29.97,ENE,61,2.0,4.0,63,0.00,,,0.00,Wunderground v.1.15,2013-08-04 18:58:00,
2013-08-04 14:59:00,83.8,71.2,29.97,ENE,61,3.0,4.0,66,0.00,,,0.00,Wunderground v.1.15,2013-08-04 18:59:00,
2013-08-04 15:00:00,83.9,70.4,29.97,ENE,61,2.0,2.0,64,0.00,,,0.00,Wunderground v.1.15,2013-08-04 19:00:00,
2013-08-04 15:03:00,84.2,72.0,29.97,ENE,61,2.0,3.0,67,0.00,,,0.00,Wunderground v.1.15,2013-08-04 19:03:00,
2013-08-04 15:04:00,84.3,70.8,29.97,ENE,61,1.0,3.0,64,0.00,,,0.00,Wunderground v.1.15,2013-08-04 19:04:00,
2013-08-04 15:05:00,84.3,70.3,29.97,ENE,61,1.0,3.0,63,0.00,,,0.00,Wunderground v.1.15,2013-08-04 19:05:00,
2013-08-04 15:08:00,84.4,71.3,29.97,ENE,61,3.0,3.0,65,0.00,,,0.00,Wunderground v.1.15,2013-08-04 19:08:00,
2013-08-04 15:09:00,84.4,71.3,29.97,ENE,61,2.0,3.0,65,0.00,,,0.00,Wunderground v.1.15,2013-08-04 19:09:00,
2013-08-04 15:10:00,84.4,71.3,29.97,ENE,61,2.0,3.0,65,0.00,,,0.00,Wunderground v.1.15,2013-08-04 19:10:00,
2013-08-04 15:14:00,84.1,73.3,29.97,ENE,61,2.0,3.0,70,0.00,,,0.00,Wunderground v.1.15,2013-08-04 19:14:00,
2013-08-04 15:15:00,84.0,71.9,29.96,ENE,61,2.0,4.0,67,0.00,,,0.00,Wunderground v.1.15,2013-08-04 19:15:00,
2013-08-04 15:19:00,83.9,72.6,29.96,ENE,61,2.0,4.0,69,0.00,,,0.00,Wunderground v.1.15,2013-08-04 19:19:00,
2013-08-04 15:20:00,83.9,72.2,29.96,ENE,61,2.0,2.0,68,0.00,,,0.00,Wunderground v.1.15,2013-08-04 19:20:00,
2013-08-04 15:24:00,84.3,71.2,29.96,ENE,61,0.0,4.0,65,0.00,,,0.00,Wunderground v.1.15,2013-08-04 19:24:00,
2013-08-04 15:25:00,84.4,70.9,29.96,ENE,61,1.0,4.0,64,0.00,,,0.00,Wunderground v.1.15,2013-08-04 19:25:00,
2013-08-04 15:30:00,85.0,71.5,29.96,ENE,61,3.0,6.0,64,0.00,,,0.00,Wunderground v.1.15,2013-08-04 19:30:00,
2013-08-04 15:31:00,85.0,71.5,29.96,ENE,61,2.0,6.0,64,0.00,,,0.00,Wunderground v.1.15,2013-08-04 19:31:00,
2013-08-04 15:35:00,85.4,73.2,29.96,ENE,61,0.0,6.0,67,0.00,,,0.00,Wunderground v.1.15,2013-08-04 19:35:00,
2013-08-04 15:36:00,85.4,71.4,29.95,ENE,61,3.0,6.0,63,0.00,,,0.00,Wunderground v.1.15,2013-08-04 19:36:00,
2013-08-04 15:38:00,85.5,70.5,29.95,ENE,61,2.0,6.0,61,0.00,,,0.00,Wunderground v.1.15,2013-08-04 19:38:00,
2013-08-04 15:40:00,85.6,70.6,29.96,ENE,61,1.0,3.0,61,0.00,,,0.00,Wunderground v.1.15,2013-08-04 19:40:00,
2013-08-04 15:41:00,85.6,70.6,29.96,ENE,61,1.0,3.0,61,0.00,,,0.00,Wunderground v.1.15,2013-08-04 19:41:00,
2013-08-04 15:43:00,85.7,71.7,29.95,ENE,61,2.0,3.0,63,0.00,,,0.00,Wunderground v.1.15,2013-08-04 19:43:00,
2013-08-04 15:45:00,85.8,69.8,29.95,ENE,61,1.0,3.0,59,0.00,,,0.00,Wunderground v.1.15,2013-08-04 19:45:00,
2013-08-04 15:46:00,85.8,69.8,29.95,ENE,61,1.0,3.0,59,0.00,,,0.00,Wunderground v.1.15,2013-08-04 19:46:00,
2013-08-04 15:47:00,85.9,70.9,29.95,ENE,61,2.0,3.0,61,0.00,,,0.00,Wunderground v.1.15,2013-08-04 19:47:00,
2013-08-04 15:48:00,85.9,71.4,29.95,ENE,61,0.0,3.0,62,0.00,,,0.00,Wunderground v.1.15,2013-08-04 19:48:00,
2013-08-04 15:50:00,86.0,71.9,29.95,ENE,61,1.0,2.0,63,0.00,,,0.00,Wunderground v.1.15,2013-08-04 19:50:00,
2013-08-04 15:51:00,86.0,71.0,29.95,ENE,61,2.0,2.0,61,0.00,,,0.00,Wunderground v.1.15,2013-08-04 19:51:00,
2013-08-04 15:52:00,86.0,71.0,29.95,ENE,61,2.0,2.0,61,0.00,,,0.00,Wunderground v.1.15,2013-08-04 19:52:00,
2013-08-04 15:55:00,86.1,70.6,29.95,ENE,61,2.0,3.0,60,0.00,,,0.00,Wunderground v.1.15,2013-08-04 19:55:00,
2013-08-04 15:56:00,86.2,72.1,29.95,ENE,61,1.0,3.0,63,0.00,,,0.00,Wunderground v.1.15,2013-08-04 19:56:00,
2013-08-04 15:57:00,86.3,73.1,29.95,ENE,61,2.0,3.0,65,0.00,,,0.00,Wunderground v.1.15,2013-08-04 19:57:00,
2013-08-04 15:58:00,86.3,71.7,29.95,ENE,61,2.0,3.0,62,0.00,,,0.00,Wunderground v.1.15,2013-08-04 19:58:00,
2013-08-04 16:00:00,86.4,69.9,29.95,ENE,61,0.0,1.0,58,0.00,,,0.00,Wunderground v.1.15,2013-08-04 20:00:00,
2013-08-04 16:01:00,86.5,71.5,29.95,ENE,61,1.0,2.0,61,0.00,,,0.00,Wunderground v.1.15,2013-08-04 20:01:00,
2013-08-04 16:02:00,86.6,70.6,29.95,ENE,61,1.0,2.0,59,0.00,,,0.00,Wunderground v.1.15,2013-08-04 20:02:00,
2013-08-04 16:05:00,86.6,74.8,29.95,ENE,61,1.0,3.0,68,0.00,,,0.00,Wunderground v.1.15,2013-08-04 20:05:00,
2013-08-04 16:06:00,86.5,71.9,29.95,ENE,61,0.0,3.0,62,0.00,,,0.00,Wunderground v.1.15,2013-08-04 20:06:00,
2013-08-04 16:07:00,86.5,71.9,29.95,ENE,61,4.0,4.0,62,0.00,,,0.00,Wunderground v.1.15,2013-08-04 20:07:00,
2013-08-04 16:08:00,86.4,72.8,29.95,ENE,61,3.0,4.0,64,0.00,,,0.00,Wunderground v.1.15,2013-08-04 20:08:00,
2013-08-04 16:10:00,86.2,72.1,29.94,ENE,61,0.0,1.0,63,0.00,,,0.00,Wunderground v.1.15,2013-08-04 20:10:00,
2013-08-04 16:11:00,85.9,69.9,29.94,ENE,61,0.0,3.0,59,0.00,,,0.00,Wunderground v.1.15,2013-08-04 20:11:00,
2013-08-04 16:12:00,86.0,72.9,29.94,ENE,61,0.0,3.0,65,0.00,,,0.00,Wunderground v.1.15,2013-08-04 20:12:00,
2013-08-04 16:13:00,85.9,74.1,29.94,ENE,61,1.0,3.0,68,0.00,,,0.00,Wunderground v.1.15,2013-08-04 20:13:00,
2013-08-04 16:15:00,85.8,73.1,29.95,ENE,61,1.0,3.0,66,0.00,,,0.00,Wunderground v.1.15,2013-08-04 20:15:00,
2013-08-04 16:17:00,85.7,72.1,29.95,ENE,61,1.0,3.0,64,0.00,,,0.00,Wunderground v.1.15,2013-08-04 20:17:00,
2013-08-04 16:18:00,85.5,73.3,29.94,ENE,61,1.0,3.0,67,0.00,,,0.00,Wunderground v.1.15,2013-08-04 20:18:00,
2013-08-04 16:20:00,85.3,73.1,29.94,ENE,61,0.0,1.0,67,0.00,,,0.00,Wunderground v.1.15,2013-08-04 20:20:00,
2013-08-04 16:21:00,85.2,72.6,29.94,ENE,61,1.0,2.0,66,0.00,,,0.00,Wunderground v.1.15,2013-08-04 20:21:00,
2013-08-04 16:22:00,85.0,72.8,29.94,ENE,61,0.0,3.0,67,0.00,,,0.00,Wunderground v.1.15,2013-08-04 20:22:00,
2013-08-04 16:23:00,84.7,71.2,29.94,ENE,61,0.0,4.0,64,0.00,,,0.00,Wunderground v.1.15,2013-08-04 20:23:00,
2013-08-04 16:26:00,84.4,73.1,29.95,ENE,61,0.0,4.0,69,0.00,,,0.00,Wunderground v.1.15,2013-08-04 20:26:00,
2013-08-04 16:27:00,84.4,73.1,29.94,ENE,61,1.0,4.0,69,0.00,,,0.00,Wunderground v.1.15,2013-08-04 20:27:00,
2013-08-04 16:29:00,84.5,72.3,29.94,ENE,61,1.0,4.0,67,0.00,,,0.00,Wunderground v.1.15,2013-08-04 20:29:00,
2013-08-04 16:31:00,84.6,72.0,29.94,ENE,61,0.0,1.0,66,0.00,,,0.00,Wunderground v.1.15,2013-08-04 20:31:00,
2013-08-04 16:32:00,84.6,72.0,29.94,ENE,61,1.0,1.0,66,0.00,,,0.00,Wunderground v.1.15,2013-08-04 20:32:00,
2013-08-04 16:33:00,84.7,70.7,29.94,ENE,61,1.0,1.0,63,0.00,,,0.00,Wunderground v.1.15,2013-08-04 20:33:00,
2013-08-04 16:35:00,84.8,72.6,29.94,ENE,61,0.0,1.0,67,0.00,,,0.00,Wunderground v.1.15,2013-08-04 20:35:00,
2013-08-04 16:37:00,85.0,74.5,29.94,ENE,61,2.0,2.0,71,0.00,,,0.00,Wunderground v.1.15,2013-08-04 20:37:00,
2013-08-04 16:38:00,85.0,73.7,29.94,ENE,61,3.0,4.0,69,0.00,,,0.00,Wunderground v.1.15,2013-08-04 20:38:00,
2013-08-04 16:39:00,85.0,73.3,29.94,ENE,61,1.0,5.0,68,0.00,,,0.00,Wunderground v.1.15,2013-08-04 20:39:00,
2013-08-04 16:40:00,85.0,73.7,29.94,ENE,61,2.0,2.0,69,0.00,,,0.00,Wunderground v.1.15,2013-08-04 20:40:00,
2013-08-04 16:42:00,85.2,72.6,29.94,ENE,61,3.0,3.0,66,0.00,,,0.00,Wunderground v.1.15,2013-08-04 20:42:00,
2013-08-04 16:43:00,85.3,73.1,29.94,ENE,61,2.0,3.0,67,0.00,,,0.00,Wunderground v.1.15,2013-08-04 20:43:00,
2013-08-04 16:44:00,85.4,74.1,29.94,ENE,61,1.0,3.0,69,0.00,,,0.00,Wunderground v.1.15,2013-08-04 20:44:00,
2013-08-04 16:45:00,85.5,71.9,29.94,ENE,61,1.0,3.0,64,0.00,,,0.00,Wunderground v.1.15,2013-08-04 20:45:00,
2013-08-04 16:48:00,85.6,71.6,29.94,ENE,61,4.0,5.0,63,0.00,,,0.00,Wunderground v.1.15,2013-08-04 20:48:00,
2013-08-04 16:49:00,85.6,72.9,29.94,ENE,60,2.0,7.0,66,0.00,,,0.00,Wunderground v.1.15,2013-08-04 20:49:00,
2013-08-04 16:51:00,85.5,73.3,29.94,ENE,60,4.0,5.0,67,0.00,,,0.00,Wunderground v.1.15,2013-08-04 20:51:00,
2013-08-04 16:53:00,85.4,72.7,29.94,ENE,61,0.0,5.0,66,0.00,,,0.00,Wunderground v.1.15,2013-08-04 20:53:00,
2013-08-04 16:54:00,85.3,71.3,29.94,ENE,60,2.0,5.0,63,0.00,,,0.00,Wunderground v.1.15,2013-08-04 20:54:00,
2013-08-04 16:56:00,85.2,73.0,29.94,ENE,61,0.0,5.0,67,0.00,,,0.00,Wunderground v.1.15,2013-08-04 20:56:00,
2013-08-04 16:58:00,85.2,70.7,29.94,ENE,59,4.0,5.0,62,0.00,,,0.00,Wunderground v.1.15,2013-08-04 20:58:00,
2013-08-04 16:59:00,85.2,71.2,29.94,ENE,59,1.0,5.0,63,0.00,,,0.00,Wunderground v.1.15,2013-08-04 20:59:00,
2013-08-04 17:00:00,85.3,70.8,29.94,ENE,59,2.0,4.0,62,0.00,,,0.00,Wunderground v.1.15,2013-08-04 21:00:00,
2013-08-04 17:02:00,85.4,71.4,29.94,ENE,59,0.0,5.0,63,0.00,,,0.00,Wunderground v.1.15,2013-08-04 21:02:00,
2013-08-04 17:03:00,85.5,72.4,29.94,ENE,60,1.0,5.0,65,0.00,,,0.00,Wunderground v.1.15,2013-08-04 21:03:00,
2013-08-04 17:04:00,85.5,72.4,29.94,ENE,59,1.0,5.0,65,0.00,,,0.00,Wunderground v.1.15,2013-08-04 21:04:00,
2013-08-04 17:06:00,85.7,70.7,29.94,ENE,64,2.0,7.0,61,0.00,,,0.00,Wunderground v.1.15,2013-08-04 21:06:00,
2013-08-04 17:07:00,85.8,72.2,29.94,ENE,64,1.0,7.0,64,0.00,,,0.00,Wunderground v.1.15,2013-08-04 21:07:00,
2013-08-04 17:08:00,85.9,72.8,29.93,ENE,65,2.0,7.0,65,0.00,,,0.00,Wunderground v.1.15,2013-08-04 21:08:00,
2013-08-04 17:09:00,85.9,72.8,29.93,ENE,65,3.0,7.0,65,0.00,,,0.00,Wunderground v.1.15,2013-08-04 21:09:00,
2013-08-04 17:11:00,86.0,71.9,29.93,ENE,64,1.0,3.0,63,0.00,,,0.00,Wunderground v.1.15,2013-08-04 21:11:00,
2013-08-04 17:12:00,86.1,73.9,29.93,ENE,65,4.0,4.0,67,0.00,,,0.00,Wunderground v.1.15,2013-08-04 21:12:00,
2013-08-04 17:13:00,86.0,71.0,29.93,ENE,65,2.0,4.0,61,0.00,,,0.00,Wunderground v.1.15,2013-08-04 21:13:00,
2013-08-04 17:14:00,86.0,71.5,29.94,ENE,64,1.0,4.0,62,0.00,,,0.00,Wunderground v.1.15,2013-08-04 21:14:00,
2013-08-04 17:16:00,85.9,71.4,29.93,ENE,64,1.0,4.0,62,0.00,,,0.00,Wunderground v.1.15,2013-08-04 21:16:00,
2013-08-04 17:18:00,85.7,71.2,29.93,ENE,65,1.0,4.0,62,0.00,,,0.00,Wunderground v.1.15,2013-08-04 21:18:00,
2013-08-04 17:19:00,85.7,71.7,29.93,ENE,65,1.0,4.0,63,0.00,,,0.00,Wunderground v.1.15,2013-08-04 21:19:00,
2013-08-04 17:21:00,85.6,71.6,29.93,ENE,64,1.0,3.0,63,0.00,,,0.00,Wunderground v.1.15,2013-08-04 21:21:00,
2013-08-04 17:24:00,85.5,70.5,29.93,ENE,65,1.0,4.0,61,0.00,,,0.00,Wunderground v.1.15,2013-08-04 21:24:00,
2013-08-04 17:25:00,85.5,72.4,29.93,ENE,65,0.0,4.0,65,0.00,,,0.00,Wunderground v.1.15,2013-08-04 21:25:00,
2013-08-04 17:26:00,85.5,71.5,29.93,ENE,64,0.0,4.0,63,0.00,,,0.00,Wunderground v.1.15,2013-08-04 21:26:00,
2013-08-04 17:29:00,85.5,71.0,29.93,ENE,64,2.0,4.0,62,0.00,,,0.00,Wunderground v.1.15,2013-08-04 21:29:00,
2013-08-04 17:30:00,85.5,70.0,29.93,ENE,64,1.0,1.0,60,0.00,,,0.00,Wunderground v.1.15,2013-08-04 21:30:00,
2013-08-04 17:32:00,85.4,69.4,29.93,ENE,64,1.0,1.0,59,0.00,,,0.00,Wunderground v.1.15,2013-08-04 21:32:00,
2013-08-04 17:34:00,85.4,69.4,29.93,ENE,65,0.0,3.0,59,0.00,,,0.00,Wunderground v.1.15,2013-08-04 21:34:00,
2013-08-04 17:35:00,85.4,67.9,29.93,ENE,64,0.0,3.0,56,0.00,,,0.00,Wunderground v.1.15,2013-08-04 21:35:00,
2013-08-04 17:37:00,85.6,69.6,29.93,ENE,64,0.0,3.0,59,0.00,,,0.00,Wunderground v.1.15,2013-08-04 21:37:00,
2013-08-04 17:39:00,85.6,69.1,29.93,ENE,64,0.0,1.0,58,0.00,,,0.00,Wunderground v.1.15,2013-08-04 21:39:00,
2013-08-04 17:40:00,85.7,70.2,29.93,ENE,64,0.0,1.0,60,0.00,,,0.00,Wunderground v.1.15,2013-08-04 21:40:00,
2013-08-04 17:42:00,85.8,71.3,29.93,ENE,64,0.0,1.0,62,0.00,,,0.00,Wunderground v.1.15,2013-08-04 21:42:00,
2013-08-04 17:45:00,86.0,70.5,29.93,ENE,65,1.0,1.0,60,0.00,,,0.00,Wunderground v.1.15,2013-08-04 21:45:00,
2013-08-04 17:47:00,86.1,69.1,29.93,ENE,65,0.0,1.0,57,0.00,,,0.00,Wunderground v.1.15,2013-08-04 21:47:00,
2013-08-04 17:49:00,86.2,71.2,29.93,ENE,65,1.0,1.0,61,0.00,,,0.00,Wunderground v.1.15,2013-08-04 21:49:00,
2013-08-04 17:50:00,86.2,70.7,29.93,ENE,64,1.0,1.0,60,0.00,,,0.00,Wunderground v.1.15,2013-08-04 21:50:00,
2013-08-04 17:53:00,85.8,70.3,29.93,ENE,64,1.0,2.0,60,0.00,,,0.00,Wunderground v.1.15,2013-08-04 21:53:00,
2013-08-04 17:54:00,85.3,69.8,29.93,ENE,64,1.0,2.0,60,0.00,,,0.00,Wunderground v.1.15,2013-08-04 21:54:00,
2013-08-04 17:55:00,85.0,69.1,29.93,ENE,64,2.0,2.0,59,0.00,,,0.00,Wunderground v.1.15,2013-08-04 21:55:00,
2013-08-04 17:56:00,84.8,68.9,29.93,ENE,65,1.0,2.0,59,0.00,,,0.00,Wunderground v.1.15,2013-08-04 21:56:00,
2013-08-04 17:58:00,84.2,69.8,29.93,ENE,65,1.0,2.0,62,0.00,,,0.00,Wunderground v.1.15,2013-08-04 21:58:00,
2013-08-04 17:59:00,84.0,69.1,29.93,ENE,65,0.0,1.0,61,0.00,,,0.00,Wunderground v.1.15,2013-08-04 21:59:00,
2013-08-04 18:01:00,83.7,67.8,29.93,ENE,65,1.0,3.0,59,0.00,,,0.00,Wunderground v.1.15,2013-08-04 22:01:00,
2013-08-04 18:02:00,83.6,68.2,29.93,ENE,64,1.0,3.0,60,0.00,,,0.00,Wunderground v.1.15,2013-08-04 22:02:00,
2013-08-04 18:03:00,83.5,69.1,29.93,ENE,65,1.0,3.0,62,0.00,,,0.00,Wunderground v.1.15,2013-08-04 22:03:00,
2013-08-04 18:05:00,83.4,69.0,29.93,ENE,64,0.0,3.0,62,0.00,,,0.00,Wunderground v.1.15,2013-08-04 22:05:00,
2013-08-04 18:07:00,83.3,68.0,29.94,ENE,65,1.0,3.0,60,0.00,,,0.00,Wunderground v.1.15,2013-08-04 22:07:00,
2013-08-04 18:08:00,83.4,68.5,29.93,ENE,65,0.0,3.0,61,0.00,,,0.00,Wunderground v.1.15,2013-08-04 22:08:00,
2013-08-04 18:10:00,83.4,68.5,29.94,ENE,65,0.0,2.0,61,0.00,,,0.00,Wunderground v.1.15,2013-08-04 22:10:00,
2013-08-04 18:12:00,83.4,69.5,29.94,ENE,65,1.0,2.0,63,0.00,,,0.00,Wunderground v.1.15,2013-08-04 22:12:00,
2013-08-04 18:13:00,83.4,69.5,29.94,ENE,65,0.0,2.0,63,0.00,,,0.00,Wunderground v.1.15,2013-08-04 22:13:00,
2013-08-04 18:14:00,83.4,69.5,29.94,ENE,65,0.0,2.0,63,0.00,,,0.00,Wunderground v.1.15,2013-08-04 22:14:00,
2013-08-04 18:15:00,83.4,68.5,29.94,ENE,64,0.0,2.0,61,0.00,,,0.00,Wunderground v.1.15,2013-08-04 22:15:00,
2013-08-04 18:18:00,83.4,69.9,29.94,ENE,65,0.0,2.0,64,0.00,,,0.00,Wunderground v.1.15,2013-08-04 22:18:00,
2013-08-04 18:19:00,83.4,69.0,29.94,ENE,65,1.0,2.0,62,0.00,,,0.00,Wunderground v.1.15,2013-08-04 22:19:00,
2013-08-04 18:21:00,83.3,68.4,29.94,ENE,65,0.0,1.0,61,0.00,,,0.00,Wunderground v.1.15,2013-08-04 22:21:00,
2013-08-04 18:23:00,83.1,69.7,29.94,ENE,64,0.0,1.0,64,0.00,,,0.00,Wunderground v.1.15,2013-08-04 22:23:00,
2013-08-04 18:24:00,82.9,69.0,29.94,ENE,65,0.0,1.0,63,0.00,,,0.00,Wunderground v.1.15,2013-08-04 22:24:00,
2013-08-04 18:25:00,82.8,69.8,29.94,ENE,65,1.0,1.0,65,0.00,,,0.00,Wunderground v.1.15,2013-08-04 22:25:00,
2013-08-04 18:26:00,82.8,69.8,29.94,ENE,65,0.0,1.0,65,0.00,,,0.00,Wunderground v.1.15,2013-08-04 22:26:00,
2013-08-04 18:28:00,82.6,67.3,29.94,ENE,65,2.0,2.0,60,0.00,,,0.00,Wunderground v.1.15,2013-08-04 22:28:00,
2013-08-04 18:29:00,82.5,67.2,29.94,ENE,65,0.0,2.0,60,0.00,,,0.00,Wunderground v.1.15,2013-08-04 22:29:00,
2013-08-04 18:30:00,82.5,67.7,29.94,ENE,65,0.0,1.0,61,0.00,,,0.00,Wunderground v.1.15,2013-08-04 22:30:00,
2013-08-04 18:32:00,82.5,68.2,29.94,ENE,65,0.0,1.0,62,0.00,,,0.00,Wunderground v.1.15,2013-08-04 22:32:00,
2013-08-04 18:33:00,82.5,68.2,29.94,ENE,64,0.0,1.0,62,0.00,,,0.00,Wunderground v.1.15,2013-08-04 22:33:00,
2013-08-04 18:34:00,82.5,68.2,29.94,ENE,65,0.0,1.0,62,0.00,,,0.00,Wunderground v.1.15,2013-08-04 22:34:00,
2013-08-04 18:36:00,82.5,66.2,29.93,ENE,65,0.0,1.0,58,0.00,,,0.00,Wunderground v.1.15,2013-08-04 22:36:00,
2013-08-04 18:38:00,82.6,66.8,29.93,ENE,65,0.0,1.0,59,0.00,,,0.00,Wunderground v.1.15,2013-08-04 22:38:00,
2013-08-04 18:39:00,82.6,68.3,29.94,ENE,65,0.0,1.0,62,0.00,,,0.00,Wunderground v.1.15,2013-08-04 22:39:00,
2013-08-04 18:41:00,82.6,67.3,29.93,ENE,65,2.0,3.0,60,0.00,,,0.00,Wunderground v.1.15,2013-08-04 22:41:00,
2013-08-04 18:43:00,82.6,66.8,29.93,ENE,64,2.0,3.0,59,0.00,,,0.00,Wunderground v.1.15,2013-08-04 22:43:00,
2013-08-04 18:44:00,82.6,68.7,29.93,ENE,65,1.0,3.0,63,0.00,,,0.00,Wunderground v.1.15,2013-08-04 22:44:00,
2013-08-04 18:45:00,82.5,69.5,29.93,ENE,65,1.0,3.0,65,0.00,,,0.00,Wunderground v.1.15,2013-08-04 22:45:00,
2013-08-04 18:47:00,82.3,68.4,29.93,ENE,65,0.0,3.0,63,0.00,,,0.00,Wunderground v.1.15,2013-08-04 22:47:00,
2013-08-04 18:48:00,82.2,67.9,29.94,ENE,65,1.0,3.0,62,0.00,,,0.00,Wunderground v.1.15,2013-08-04 22:48:00,
2013-08-04 18:49:00,82.0,66.7,29.93,ENE,65,0.0,3.0,60,0.00,,,0.00,Wunderground v.1.15,2013-08-04 22:49:00,
2013-08-04 18:50:00,81.9,67.6,29.94,ENE,65,0.0,1.0,62,0.00,,,0.00,Wunderground v.1.15,2013-08-04 22:50:00,
2013-08-04 18:52:00,81.7,68.3,29.93,ENE,64,0.0,1.0,64,0.00,,,0.00,Wunderground v.1.15,2013-08-04 22:52:00,
2013-08-04 18:53:00,81.6,69.6,29.93,ENE,65,0.0,1.0,67,0.00,,,0.00,Wunderground v.1.15,2013-08-04 22:53:00,
2013-08-04 18:54:00,81.6,69.6,29.93,ENE,65,0.0,1.0,67,0.00,,,0.00,Wunderground v.1.15,2013-08-04 22:54:00,
2013-08-04 18:57:00,81.4,67.1,29.93,ENE,64,1.0,2.0,62,0.00,,,0.00,Wunderground v.1.15,2013-08-04 22:57:00,
2013-08-04 18:58:00,81.3,66.6,29.93,ENE,65,0.0,2.0,61,0.00,,,0.00,Wunderground v.1.15,2013-08-04 22:58:00,
2013-08-04 18:59:00,81.2,67.9,29.93,ENE,64,0.0,2.0,64,0.00,,,0.00,Wunderground v.1.15,2013-08-04 22:59:00,
2013-08-04 19:02:00,80.9,67.6,29.93,ENE,65,0.0,1.0,64,0.00,,,0.00,Wunderground v.1.15,2013-08-04 23:02:00,
2013-08-04 19:03:00,80.8,67.0,29.93,ENE,65,0.0,1.0,63,0.00,,,0.00,Wunderground v.1.15,2013-08-04 23:03:00,
2013-08-04 19:04:00,80.6,67.7,29.93,ENE,64,0.0,1.0,65,0.00,,,0.00,Wunderground v.1.15,2013-08-04 23:04:00,
2013-08-04 19:05:00,80.5,68.5,29.93,ENE,65,0.0,1.0,67,0.00,,,0.00,Wunderground v.1.15,2013-08-04 23:05:00,
2013-08-04 19:07:00,80.4,68.0,29.94,ENE,65,0.0,1.0,66,0.00,,,0.00,Wunderground v.1.15,2013-08-04 23:07:00,
2013-08-04 19:09:00,80.3,68.8,29.94,ENE,65,0.0,1.0,68,0.00,,,0.00,Wunderground v.1.15,2013-08-04 23:09:00,
2013-08-04 19:10:00,80.2,67.8,29.94,ENE,65,0.0,0.0,66,0.00,,,0.00,Wunderground v.1.15,2013-08-04 23:10:00,
2013-08-04 19:12:00,80.1,69.4,29.94,ENE,65,0.0,0.0,70,0.00,,,0.00,Wunderground v.1.15,2013-08-04 23:12:00,
2013-08-04 19:14:00,80.0,68.9,29.94,ENE,65,0.0,0.0,69,0.00,,,0.00,Wunderground v.1.15,2013-08-04 23:14:00,
2013-08-04 19:15:00,79.9,68.8,29.94,ENE,64,0.0,0.0,69,0.00,,,0.00,Wunderground v.1.15,2013-08-04 23:15:00,
2013-08-04 19:18:00,79.7,69.9,29.94,ENE,65,0.0,1.0,72,0.00,,,0.00,Wunderground v.1.15,2013-08-04 23:18:00,
2013-08-04 19:20:00,79.5,68.9,29.94,ENE,65,0.0,0.0,70,0.00,,,0.00,Wunderground v.1.15,2013-08-04 23:20:00,
2013-08-04 19:21:00,79.3,69.1,29.94,ENE,65,0.0,0.0,71,0.00,,,0.00,Wunderground v.1.15,2013-08-04 23:21:00,
2013-08-04 19:23:00,79.1,68.5,29.94,ENE,65,0.0,0.0,70,0.00,,,0.00,Wunderground v.1.15,2013-08-04 23:23:00,
2013-08-04 19:25:00,78.9,69.5,29.94,ENE,65,0.0,0.0,73,0.00,,,0.00,Wunderground v.1.15,2013-08-04 23:25:00,
2013-08-04 19:27:00,78.7,68.9,29.94,ENE,64,0.0,0.0,72,0.00,,,0.00,Wunderground v.1.15,2013-08-04 23:27:00,
2013-08-04 19:28:00,78.7,68.9,29.94,ENE,65,0.0,0.0,72,0.00,,,0.00,Wunderground v.1.15,2013-08-04 23:28:00,
2013-08-04 19:30:00,78.6,69.2,29.94,ENE,64,0.0,0.0,73,0.00,,,0.00,Wunderground v.1.15,2013-08-04 23:30:00,
2013-08-04 19:32:00,78.4,68.6,29.94,ENE,64,0.0,0.0,72,0.00,,,0.00,Wunderground v.1.15,2013-08-04 23:32:00,
2013-08-04 19:33:00,78.4,68.2,29.94,ENE,64,0.0,0.0,71,0.00,,,0.00,Wunderground v.1.15,2013-08-04 23:33:00,
2013-08-04 19:34:00,78.2,67.2,29.94,ENE,65,0.0,0.0,69,0.00,,,0.00,Wunderground v.1.15,2013-08-04 23:34:00,
2013-08-04 19:35:00,78.2,68.0,29.94,ENE,65,0.0,0.0,71,0.00,,,0.00,Wunderground v.1.15,2013-08-04 23:35:00,
2013-08-04 19:36:00,78.1,67.9,29.94,ENE,65,0.0,0.0,71,0.00,,,0.00,Wunderground v.1.15,2013-08-04 23:36:00,
2013-08-04 19:37:00,78.1,68.3,29.94,ENE,65,0.0,0.0,72,0.00,,,0.00,Wunderground v.1.15,2013-08-04 23:37:00,
2013-08-04 19:38:00,78.1,68.7,29.94,ENE,65,0.0,0.0,73,0.00,,,0.00,Wunderground v.1.15,2013-08-04 23:38:00,
2013-08-04 19:39:00,78.1,68.7,29.95,ENE,65,0.0,0.0,73,0.00,,,0.00,Wunderground v.1.15,2013-08-04 23:39:00,
2013-08-04 19:41:00,78.1,69.1,29.95,ENE,65,0.0,0.0,74,0.00,,,0.00,Wunderground v.1.15,2013-08-04 23:41:00,
2013-08-04 19:42:00,78.0,68.2,29.95,ENE,64,0.0,0.0,72,0.00,,,0.00,Wunderground v.1.15,2013-08-04 23:42:00,
2013-08-04 19:43:00,78.0,67.8,29.95,ENE,65,0.0,1.0,71,0.00,,,0.00,Wunderground v.1.15,2013-08-04 23:43:00,
2013-08-04 19:44:00,77.9,68.1,29.95,ENE,65,0.0,1.0,72,0.00,,,0.00,Wunderground v.1.15,2013-08-04 23:44:00,
2013-08-04 19:46:00,77.9,68.5,29.95,ENE,65,0.0,1.0,73,0.00,,,0.00,Wunderground v.1.15,2013-08-04 23:46:00,
2013-08-04 19:47:00,77.8,68.8,29.94,ENE,64,0.0,1.0,74,0.00,,,0.00,Wunderground v.1.15,2013-08-04 23:47:00,
2013-08-04 19:48:00,77.7,67.1,29.95,ENE,65,0.0,1.0,70,0.00,,,0.00,Wunderground v.1.15,2013-08-04 23:48:00,
2013-08-04 19:49:00,77.6,67.0,29.94,ENE,65,0.0,0.0,70,0.00,,,0.00,Wunderground v.1.15,2013-08-04 23:49:00,
2013-08-04 19:51:00,77.6,67.9,29.95,ENE,65,0.0,0.0,72,0.00,,,0.00,Wunderground v.1.15,2013-08-04 23:51:00,
2013-08-04 19:52:00,77.6,67.9,29.95,ENE,65,0.0,0.0,72,0.00,,,0.00,Wunderground v.1.15,2013-08-04 23:52:00,
2013-08-04 19:53:00,77.5,67.8,29.95,ENE,64,0.0,0.0,72,0.00,,,0.00,Wunderground v.1.15,2013-08-04 23:53:00,
2013-08-04 19:54:00,77.5,67.8,29.95,ENE,65,0.0,0.0,72,0.00,,,0.00,Wunderground v.1.15,2013-08-04 23:54:00,
2013-08-04 19:55:00,77.5,67.8,29.95,ENE,65,0.0,0.0,72,0.00,,,0.00,Wunderground v.1.15,2013-08-04 23:55:00,
2013-08-04 19:57:00,77.4,67.3,29.95,ENE,64,0.0,0.0,71,0.00,,,0.00,Wunderground v.1.15,2013-08-04 23:57:00,
2013-08-04 19:58:00,77.3,67.2,29.95,ENE,65,0.0,0.0,71,0.00,,,0.00,Wunderground v.1.15,2013-08-04 23:58:00,
2013-08-04 19:59:00,77.3,67.6,29.95,ENE,64,0.0,0.0,72,0.00,,,0.00,Wunderground v.1.15,2013-08-04 23:59:00,
2013-08-04 20:00:00,77.2,67.1,29.95,ENE,65,0.0,0.0,71,0.00,,,0.00,Wunderground v.1.15,2013-08-05 00:00:00,
2013-08-04 20:02:00,77.1,67.8,29.94,ENE,65,0.0,0.0,73,0.00,,,0.00,Wunderground v.1.15,2013-08-05 00:02:00,
2013-08-04 20:04:00,77.0,67.3,29.95,ENE,65,0.0,1.0,72,0.00,,,0.00,Wunderground v.1.15,2013-08-05 00:04:00,
2013-08-04 20:05:00,76.9,68.0,29.95,ENE,64,0.0,1.0,74,0.00,,,0.00,Wunderground v.1.15,2013-08-05 00:05:00,
2013-08-04 20:07:00,76.8,68.3,29.95,ENE,65,1.0,1.0,75,0.00,,,0.00,Wunderground v.1.15,2013-08-05 00:07:00,
2013-08-04 20:09:00,76.7,67.8,29.95,ENE,65,0.0,2.0,74,0.00,,,0.00,Wunderground v.1.15,2013-08-05 00:09:00,
2013-08-04 20:10:00,76.6,68.1,29.95,ENE,64,0.0,0.0,75,0.00,,,0.00,Wunderground v.1.15,2013-08-05 00:10:00,
2013-08-04 20:13:00,76.4,67.5,29.95,ENE,65,0.0,1.0,74,0.00,,,0.00,Wunderground v.1.15,2013-08-05 00:13:00,
2013-08-04 20:14:00,76.3,68.2,29.95,ENE,65,0.0,1.0,76,0.00,,,0.00,Wunderground v.1.15,2013-08-05 00:14:00,
2013-08-04 20:15:00,76.2,67.3,29.95,ENE,65,0.0,2.0,74,0.00,,,0.00,Wunderground v.1.15,2013-08-05 00:15:00,
2013-08-04 20:16:00,76.2,67.3,29.95,ENE,65,0.0,2.0,74,0.00,,,0.00,Wunderground v.1.15,2013-08-05 00:16:00,
2013-08-04 20:19:00,75.9,67.4,29.95,ENE,65,0.0,2.0,75,0.00,,,0.00,Wunderground v.1.15,2013-08-05 00:19:00,
2013-08-04 20:20:00,75.7,67.6,29.95,ENE,65,0.0,1.0,76,0.00,,,0.00,Wunderground v.1.15,2013-08-05 00:20:00,
2013-08-04 20:21:00,75.6,67.1,29.95,ENE,64,0.0,1.0,75,0.00,,,0.00,Wunderground v.1.15,2013-08-05 00:21:00,
2013-08-04 20:22:00,75.6,68.3,29.95,ENE,65,0.0,1.0,78,0.00,,,0.00,Wunderground v.1.15,2013-08-05 00:22:00,
2013-08-04 20:24:00,75.4,67.3,29.95,ENE,65,0.0,1.0,76,0.00,,,0.00,Wunderground v.1.15,2013-08-05 00:24:00,
2013-08-04 20:25:00,75.2,67.9,29.96,ENE,65,0.0,1.0,78,0.00,,,0.00,Wunderground v.1.15,2013-08-05 00:25:00,
2013-08-04 20:27:00,75.0,66.9,29.96,ENE,64,0.0,1.0,76,0.00,,,0.00,Wunderground v.1.15,2013-08-05 00:27:00,
2013-08-04 20:29:00,74.7,66.6,29.96,ENE,64,0.0,1.0,76,0.00,,,0.00,Wunderground v.1.15,2013-08-05 00:29:00,
2013-08-04 20:30:00,74.7,66.2,29.95,ENE,64,0.0,0.0,75,0.00,,,0.00,Wunderground v.1.15,2013-08-05 00:30:00,
2013-08-04 20:32:00,74.4,67.1,29.95,ENE,65,0.0,1.0,78,0.00,,,0.00,Wunderground v.1.15,2013-08-05 00:32:00,
2013-08-04 20:33:00,74.4,67.1,29.95,ENE,65,0.0,1.0,78,0.00,,,0.00,Wunderground v.1.15,2013-08-05 00:33:00,
2013-08-04 20:34:00,74.2,66.5,29.95,ENE,65,0.0,1.0,77,0.00,,,0.00,Wunderground v.1.15,2013-08-05 00:34:00,
2013-08-04 20:35:00,74.2,66.9,29.95,ENE,64,0.0,1.0,78,0.00,,,0.00,Wunderground v.1.15,2013-08-05 00:35:00,
2013-08-04 20:36:00,74.0,66.7,29.95,ENE,64,0.0,1.0,78,0.00,,,0.00,Wunderground v.1.15,2013-08-05 00:36:00,
2013-08-04 20:37:00,74.0,66.0,29.95,ENE,64,0.0,1.0,76,0.00,,,0.00,Wunderground v.1.15,2013-08-05 00:37:00,
2013-08-04 20:38:00,73.9,65.9,29.95,ENE,64,0.0,1.0,76,0.00,,,0.00,Wunderground v.1.15,2013-08-05 00:38:00,
2013-08-04 20:39:00,73.9,65.9,29.95,ENE,65,0.0,0.0,76,0.00,,,0.00,Wunderground v.1.15,2013-08-05 00:39:00,
2013-08-04 20:40:00,73.8,65.8,29.95,ENE,65,0.0,0.0,76,0.00,,,0.00,Wunderground v.1.15,2013-08-05 00:40:00,
2013-08-04 20:42:00,73.7,65.7,29.95,ENE,65,0.0,1.0,76,0.00,,,0.00,Wunderground v.1.15,2013-08-05 00:42:00,
2013-08-04 20:43:00,73.7,65.3,29.95,ENE,65,0.0,1.0,75,0.00,,,0.00,Wunderground v.1.15,2013-08-05 00:43:00,
2013-08-04 20:44:00,73.7,65.3,29.95,ENE,65,0.0,1.0,75,0.00,,,0.00,Wunderground v.1.15,2013-08-05 00:44:00,
2013-08-04 20:45:00,73.6,65.2,29.95,ENE,65,1.0,1.0,75,0.00,,,0.00,Wunderground v.1.15,2013-08-05 00:45:00,
2013-08-04 20:46:00,73.6,65.2,29.95,ENE,65,0.0,1.0,75,0.00,,,0.00,Wunderground v.1.15,2013-08-05 00:46:00,
2013-08-04 20:47:00,73.6,65.6,29.95,ENE,65,0.0,1.0,76,0.00,,,0.00,Wunderground v.1.15,2013-08-05 00:47:00,
2013-08-04 20:48:00,73.6,65.2,29.96,ENE,65,0.0,1.0,75,0.00,,,0.00,Wunderground v.1.15,2013-08-05 00:48:00,
2013-08-04 20:49:00,73.6,65.6,29.96,ENE,65,1.0,1.0,76,0.00,,,0.00,Wunderground v.1.15,2013-08-05 00:49:00,
2013-08-04 20:50:00,73.6,65.2,29.96,ENE,64,1.0,2.0,75,0.00,,,0.00,Wunderground v.1.15,2013-08-05 00:50:00,
2013-08-04 20:51:00,73.5,64.7,29.96,ENE,65,0.0,2.0,74,0.00,,,0.00,Wunderground v.1.15,2013-08-05 00:51:00,
2013-08-04 20:52:00,73.6,64.8,29.96,ENE,65,0.0,2.0,74,0.00,,,0.00,Wunderground v.1.15,2013-08-05 00:52:00,
2013-08-04 20:53:00,73.6,65.2,29.96,ENE,65,0.0,2.0,75,0.00,,,0.00,Wunderground v.1.15,2013-08-05 00:53:00,
2013-08-04 20:55:00,73.6,65.2,29.96,ENE,64,0.0,2.0,75,0.00,,,0.00,Wunderground v.1.15,2013-08-05 00:55:00,
2013-08-04 20:56:00,73.6,65.6,29.96,ENE,64,0.0,2.0,76,0.00,,,0.00,Wunderground v.1.15,2013-08-05 00:56:00,
2013-08-04 20:57:00,73.5,65.1,29.96,ENE,65,0.0,2.0,75,0.00,,,0.00,Wunderground v.1.15,2013-08-05 00:57:00,
2013-08-04 20:58:00,73.5,64.7,29.95,ENE,64,0.0,3.0,74,0.00,,,0.00,Wunderground v.1.15,2013-08-05 00:58:00,
2013-08-04 21:00:00,73.5,64.7,29.96,ENE,65,0.0,1.0,74,0.00,,,0.00,Wunderground v.1.15,2013-08-05 01:00:00,
2013-08-04 21:02:00,73.5,65.1,29.96,ENE,64,0.0,1.0,75,0.00,,,0.00,Wunderground v.1.15,2013-08-05 01:02:00,
2013-08-04 21:03:00,73.5,65.5,29.96,ENE,64,1.0,1.0,76,0.00,,,0.00,Wunderground v.1.15,2013-08-05 01:03:00,
2013-08-04 21:06:00,73.4,64.6,29.96,ENE,64,0.0,2.0,74,0.00,,,0.00,Wunderground v.1.15,2013-08-05 01:06:00,
2013-08-04 21:07:00,73.4,65.0,29.96,ENE,65,0.0,2.0,75,0.00,,,0.00,Wunderground v.1.15,2013-08-05 01:07:00,
2013-08-04 21:08:00,73.4,64.6,29.96,ENE,65,0.0,2.0,74,0.00,,,0.00,Wunderground v.1.15,2013-08-05 01:08:00,
2013-08-04 21:09:00,73.4,64.6,29.96,ENE,65,0.0,2.0,74,0.00,,,0.00,Wunderground v.1.15,2013-08-05 01:09:00,
2013-08-04 21:12:00,73.4,64.6,29.96,ENE,65,0.0,3.0,74,0.00,,,0.00,Wunderground v.1.15,2013-08-05 01:12:00,
2013-08-04 21:13:00,73.4,64.6,29.96,ENE,64,0.0,3.0,74,0.00,,,0.00,Wunderground v.1.15,2013-08-05 01:13:00,
2013-08-04 21:14:00,73.4,65.0,29.96,ENE,65,1.0,3.0,75,0.00,,,0.00,Wunderground v.1.15,2013-08-05 01:14:00,
2013-08-04 21:18:00,73.3,64.5,29.96,ENE,65,0.0,3.0,74,0.00,,,0.00,Wunderground v.1.15,2013-08-05 01:18:00,
2013-08-04 21:19:00,73.3,64.9,29.96,ENE,65,0.0,3.0,75,0.00,,,0.00,Wunderground v.1.15,2013-08-05 01:19:00,
2013-08-04 21:20:00,73.3,64.5,29.96,ENE,65,0.0,1.0,74,0.00,,,0.00,Wunderground v.1.15,2013-08-05 01:20:00,
2013-08-04 21:23:00,73.1,65.1,29.96,ENE,64,0.0,1.0,76,0.00,,,0.00,Wunderground v.1.15,2013-08-05 01:23:00,
2013-08-04 21:24:00,73.1,65.1,29.96,ENE,65,0.0,1.0,76,0.00,,,0.00,Wunderground v.1.15,2013-08-05 01:24:00,
2013-08-04 21:25:00,73.0,65.0,29.96,ENE,64,1.0,1.0,76,0.00,,,0.00,Wunderground v.1.15,2013-08-05 01:25:00,
2013-08-04 21:28:00,72.9,64.5,29.96,ENE,65,0.0,1.0,75,0.00,,,0.00,Wunderground v.1.15,2013-08-05 01:28:00,
2013-08-04 21:29:00,72.8,64.4,29.96,ENE,64,0.0,1.0,75,0.00,,,0.00,Wunderground v.1.15,2013-08-05 01:29:00,
2013-08-04 21:31:00,72.7,64.3,29.96,ENE,65,0.0,2.0,75,0.00,,,0.00,Wunderground v.1.15,2013-08-05 01:31:00,
2013-08-04 21:33:00,72.6,64.2,29.96,ENE,64,0.0,2.0,75,0.00,,,0.00,Wunderground v.1.15,2013-08-05 01:33:00,
2013-08-04 21:34:00,72.6,64.2,29.96,ENE,65,0.0,2.0,75,0.00,,,0.00,Wunderground v.1.15,2013-08-05 01:34:00,
2013-08-04 21:36:00,72.6,64.2,29.97,ENE,64,0.0,2.0,75,0.00,,,0.00,Wunderground v.1.15,2013-08-05 01:36:00,
2013-08-04 21:39:00,72.6,64.6,29.97,ENE,65,0.0,2.0,76,0.00,,,0.00,Wunderground v.1.15,2013-08-05 01:39:00,
2013-08-04 21:40:00,72.6,64.2,29.97,ENE,65,0.0,0.0,75,0.00,,,0.00,Wunderground v.1.15,2013-08-05 01:40:00,
2013-08-04 21:41:00,72.6,64.2,29.97,ENE,65,0.0,0.0,75,0.00,,,0.00,Wunderground v.1.15,2013-08-05 01:41:00,
2013-08-04 21:44:00,72.6,64.6,29.97,ENE,65,0.0,0.0,76,0.00,,,0.00,Wunderground v.1.15,2013-08-05 01:44:00,
2013-08-04 21:45:00,72.6,64.2,29.97,ENE,65,0.0,1.0,75,0.00,,,0.00,Wunderground v.1.15,2013-08-05 01:45:00,
2013-08-04 21:46:00,72.6,64.6,29.97,ENE,65,0.0,1.0,76,0.00,,,0.00,Wunderground v.1.15,2013-08-05 01:46:00,
2013-08-04 21:49:00,72.5,64.5,29.97,ENE,65,0.0,1.0,76,0.00,,,0.00,Wunderground v.1.15,2013-08-05 01:49:00,
2013-08-04 21:50:00,72.5,64.5,29.98,ENE,65,0.0,0.0,76,0.00,,,0.00,Wunderground v.1.15,2013-08-05 01:50:00,
2013-08-04 21:52:00,72.4,64.0,29.98,ENE,65,0.0,1.0,75,0.00,,,0.00,Wunderground v.1.15,2013-08-05 01:52:00,
2013-08-04 21:54:00,72.4,64.0,29.98,ENE,65,0.0,1.0,75,0.00,,,0.00,Wunderground v.1.15,2013-08-05 01:54:00,
2013-08-04 21:55:00,72.4,64.0,29.98,ENE,65,0.0,1.0,75,0.00,,,0.00,Wunderground v.1.15,2013-08-05 01:55:00,
2013-08-04 21:56:00,72.4,64.0,29.98,ENE,64,0.0,1.0,75,0.00,,,0.00,Wunderground v.1.15,2013-08-05 01:56:00,
2013-08-04 21:57:00,72.4,64.0,29.98,ENE,64,0.0,1.0,75,0.00,,,0.00,Wunderground v.1.15,2013-08-05 01:57:00,
2013-08-04 21:59:00,72.4,64.0,29.98,ENE,65,0.0,1.0,75,0.00,,,0.00,Wunderground v.1.15,2013-08-05 01:59:00,
2013-08-04 22:00:00,72.4,64.0,29.98,ENE,65,0.0,0.0,75,0.00,,,0.00,Wunderground v.1.15,2013-08-05 02:00:00,
2013-08-04 22:01:00,72.3,63.9,29.98,ENE,65,0.0,0.0,75,0.00,,,0.00,Wunderground v.1.15,2013-08-05 02:01:00,
2013-08-04 22:02:00,72.3,63.9,29.98,ENE,65,0.0,0.0,75,0.00,,,0.00,Wunderground v.1.15,2013-08-05 02:02:00,
2013-08-04 22:05:00,72.3,63.9,29.98,ENE,65,0.0,0.0,75,0.00,,,0.00,Wunderground v.1.15,2013-08-05 02:05:00,
2013-08-04 22:06:00,72.2,63.8,29.98,ENE,65,0.0,0.0,75,0.00,,,0.00,Wunderground v.1.15,2013-08-05 02:06:00,
2013-08-04 22:07:00,72.2,63.8,29.99,ENE,64,0.0,0.0,75,0.00,,,0.00,Wunderground v.1.15,2013-08-05 02:07:00,
2013-08-04 22:10:00,72.2,64.2,29.98,ENE,64,0.0,0.0,76,0.00,,,0.00,Wunderground v.1.15,2013-08-05 02:10:00,
2013-08-04 22:11:00,72.2,64.2,29.98,ENE,65,0.0,0.0,76,0.00,,,0.00,Wunderground v.1.15,2013-08-05 02:11:00,
2013-08-04 22:12:00,72.2,64.2,29.99,ENE,64,0.0,0.0,76,0.00,,,0.00,Wunderground v.1.15,2013-08-05 02:12:00,
2013-08-04 22:13:00,72.2,64.2,29.98,ENE,65,1.0,1.0,76,0.00,,,0.00,Wunderground v.1.15,2013-08-05 02:13:00,
2013-08-04 22:15:00,72.2,64.2,29.99,ENE,65,0.0,1.0,76,0.00,,,0.00,Wunderground v.1.15,2013-08-05 02:15:00,
2013-08-04 22:16:00,72.2,64.2,29.99,ENE,65,0.0,1.0,76,0.00,,,0.00,Wunderground v.1.15,2013-08-05 02:16:00,
2013-08-04 22:17:00,72.2,64.2,29.98,ENE,65,0.0,1.0,76,0.00,,,0.00,Wunderground v.1.15,2013-08-05 02:17:00,
2013-08-04 22:18:00,72.2,64.2,29.99,ENE,65,0.0,1.0,76,0.00,,,0.00,Wunderground v.1.15,2013-08-05 02:18:00,
2013-08-04 22:20:00,72.2,64.6,29.98,ENE,64,0.0,0.0,77,0.00,,,0.00,Wunderground v.1.15,2013-08-05 02:20:00,
2013-08-04 22:21:00,72.2,64.6,29.98,ENE,65,0.0,0.0,77,0.00,,,0.00,Wunderground v.1.15,2013-08-05 02:21:00,
2013-08-04 22:22:00,72.2,64.6,29.98,ENE,65,0.0,1.0,77,0.00,,,0.00,Wunderground v.1.15,2013-08-05 02:22:00,
2013-08-04 22:24:00,72.2,65.3,29.99,ENE,65,0.0,1.0,79,0.00,,,0.00,Wunderground v.1.15,2013-08-05 02:24:00,
2013-08-04 22:25:00,72.2,65.3,29.98,ENE,65,0.0,1.0,79,0.00,,,0.00,Wunderground v.1.15,2013-08-05 02:25:00,
2013-08-04 22:26:00,72.2,65.3,29.98,ENE,65,0.0,1.0,79,0.00,,,0.00,Wunderground v.1.15,2013-08-05 02:26:00,
2013-08-04 22:27:00,72.1,65.2,29.99,ENE,65,0.0,1.0,79,0.00,,,0.00,Wunderground v.1.15,2013-08-05 02:27:00,
2013-08-04 22:29:00,72.1,65.6,29.99,ENE,64,0.0,1.0,80,0.00,,,0.00,Wunderground v.1.15,2013-08-05 02:29:00,
2013-08-04 22:30:00,72.0,65.5,29.98,ENE,64,0.0,0.0,80,0.00,,,0.00,Wunderground v.1.15,2013-08-05 02:30:00,
2013-08-04 22:32:00,71.9,64.7,29.99,ENE,64,0.0,0.0,78,0.00,,,0.00,Wunderground v.1.15,2013-08-05 02:32:00,
2013-08-04 22:34:00,71.8,64.6,29.99,ENE,65,0.0,0.0,78,0.00,,,0.00,Wunderground v.1.15,2013-08-05 02:34:00,
2013-08-04 22:35:00,71.7,64.5,29.98,ENE,65,0.0,0.0,78,0.00,,,0.00,Wunderground v.1.15,2013-08-05 02:35:00,
2013-08-04 22:37:00,71.5,64.3,29.99,ENE,65,0.0,0.0,78,0.00,,,0.00,Wunderground v.1.15,2013-08-05 02:37:00,
2013-08-04 22:38:00,71.5,64.3,29.99,ENE,64,0.0,0.0,78,0.00,,,0.00,Wunderground v.1.15,2013-08-05 02:38:00,
2013-08-04 22:39:00,71.5,64.3,29.99,ENE,65,0.0,0.0,78,0.00,,,0.00,Wunderground v.1.15,2013-08-05 02:39:00,
2013-08-04 22:40:00,71.3,64.1,29.99,ENE,65,0.0,0.0,78,0.00,,,0.00,Wunderground v.1.15,2013-08-05 02:40:00,
2013-08-04 22:42:00,71.3,64.4,29.99,ENE,65,0.0,0.0,79,0.00,,,0.00,Wunderground v.1.15,2013-08-05 02:42:00,
2013-08-04 22:43:00,71.3,64.4,29.99,ENE,65,0.0,0.0,79,0.00,,,0.00,Wunderground v.1.15,2013-08-05 02:43:00,
2013-08-04 22:44:00,71.2,64.0,29.99,ENE,65,0.0,0.0,78,0.00,,,0.00,Wunderground v.1.15,2013-08-05 02:44:00,
2013-08-04 22:45:00,71.1,63.9,29.99,ENE,65,0.0,0.0,78,0.00,,,0.00,Wunderground v.1.15,2013-08-05 02:45:00,
2013-08-04 22:47:00,71.0,63.8,29.99,ENE,65,0.0,0.0,78,0.00,,,0.00,Wunderground v.1.15,2013-08-05 02:47:00,
2013-08-04 22:48:00,71.0,63.8,29.99,ENE,65,0.0,0.0,78,0.00,,,0.00,Wunderground v.1.15,2013-08-05 02:48:00,
2013-08-04 22:49:00,70.9,63.7,29.99,ENE,64,0.0,0.0,78,0.00,,,0.00,Wunderground v.1.15,2013-08-05 02:49:00,
2013-08-04 22:50:00,70.9,63.7,29.99,ENE,64,0.0,0.0,78,0.00,,,0.00,Wunderground v.1.15,2013-08-05 02:50:00,
2013-08-04 22:52:00,70.8,64.0,29.99,ENE,65,0.0,0.0,79,0.00,,,0.00,Wunderground v.1.15,2013-08-05 02:52:00,
2013-08-04 22:53:00,70.8,63.6,29.99,ENE,64,0.0,0.0,78,0.00,,,0.00,Wunderground v.1.15,2013-08-05 02:53:00,
2013-08-04 22:54:00,70.8,63.6,29.99,ENE,65,0.0,0.0,78,0.00,,,0.00,Wunderground v.1.15,2013-08-05 02:54:00,
2013-08-04 22:55:00,70.8,63.6,29.99,ENE,64,0.0,0.0,78,0.00,,,0.00,Wunderground v.1.15,2013-08-05 02:55:00,
2013-08-04 22:56:00,70.8,64.0,29.99,ENE,64,0.0,0.0,79,0.00,,,0.00,Wunderground v.1.15,2013-08-05 02:56:00,
2013-08-04 22:59:00,70.8,64.0,30.00,ENE,65,0.0,0.0,79,0.00,,,0.00,Wunderground v.1.15,2013-08-05 02:59:00,
2013-08-04 23:00:00,70.8,64.0,30.00,ENE,65,0.0,0.0,79,0.00,,,0.00,Wunderground v.1.15,2013-08-05 03:00:00,
2013-08-04 23:01:00,70.8,64.0,30.00,ENE,64,0.0,0.0,79,0.00,,,0.00,Wunderground v.1.15,2013-08-05 03:01:00,
2013-08-04 23:04:00,70.8,64.3,30.00,ENE,64,0.0,0.0,80,0.00,,,0.00,Wunderground v.1.15,2013-08-05 03:04:00,
2013-08-04 23:05:00,70.8,64.0,30.00,ENE,65,0.0,0.0,79,0.00,,,0.00,Wunderground v.1.15,2013-08-05 03:05:00,
2013-08-04 23:07:00,70.7,63.9,30.00,ENE,64,0.0,0.0,79,0.00,,,0.00,Wunderground v.1.15,2013-08-05 03:07:00,
2013-08-04 23:09:00,70.8,64.0,30.00,ENE,64,0.0,0.0,79,0.00,,,0.00,Wunderground v.1.15,2013-08-05 03:09:00,
2013-08-04 23:10:00,70.8,64.0,30.00,ENE,65,0.0,0.0,79,0.00,,,0.00,Wunderground v.1.15,2013-08-05 03:10:00,
2013-08-04 23:11:00,70.8,64.0,30.00,ENE,65,0.0,1.0,79,0.00,,,0.00,Wunderground v.1.15,2013-08-05 03:11:00,
2013-08-04 23:12:00,70.8,64.0,30.00,ENE,64,0.0,1.0,79,0.00,,,0.00,Wunderground v.1.15,2013-08-05 03:12:00,
2013-08-04 23:14:00,70.8,64.7,30.00,ENE,65,0.0,1.0,81,0.00,,,0.00,Wunderground v.1.15,2013-08-05 03:14:00,
2013-08-04 23:15:00,70.9,64.8,30.00,ENE,65,0.0,1.0,81,0.00,,,0.00,Wunderground v.1.15,2013-08-05 03:15:00,
2013-08-04 23:16:00,70.9,65.1,30.00,ENE,65,0.0,1.0,82,0.00,,,0.00,Wunderground v.1.15,2013-08-05 03:16:00,
2013-08-04 23:18:00,70.8,64.7,30.00,ENE,64,0.0,1.0,81,0.00,,,0.00,Wunderground v.1.15,2013-08-05 03:18:00,
2013-08-04 23:19:00,70.7,64.9,30.00,ENE,65,0.0,1.0,82,0.00,,,0.00,Wunderground v.1.15,2013-08-05 03:19:00,
2013-08-04 23:20:00,70.7,64.9,30.00,ENE,64,0.0,0.0,82,0.00,,,0.00,Wunderground v.1.15,2013-08-05 03:20:00,
2013-08-04 23:21:00,70.6,64.8,30.00,ENE,65,0.0,0.0,82,0.00,,,0.00,Wunderground v.1.15,2013-08-05 03:21:00,
2013-08-04 23:23:00,70.6,64.8,30.00,ENE,65,0.0,0.0,82,0.00,,,0.00,Wunderground v.1.15,2013-08-05 03:23:00,
2013-08-04 23:25:00,70.4,65.0,30.00,ENE,65,0.0,0.0,83,0.00,,,0.00,Wunderground v.1.15,2013-08-05 03:25:00,
2013-08-04 23:26:00,70.3,64.9,30.00,ENE,65,0.0,0.0,83,0.00,,,0.00,Wunderground v.1.15,2013-08-05 03:26:00,
2013-08-04 23:28:00,70.1,64.7,30.00,ENE,64,0.0,0.0,83,0.00,,,0.00,Wunderground v.1.15,2013-08-05 03:28:00,
2013-08-04 23:30:00,69.9,64.5,30.00,ENE,65,0.0,0.0,83,0.00,,,0.00,Wunderground v.1.15,2013-08-05 03:30:00,
2013-08-04 23:31:00,69.9,64.5,30.00,ENE,64,0.0,0.0,83,0.00,,,0.00,Wunderground v.1.15,2013-08-05 03:31:00,
2013-08-04 23:34:00,69.6,64.5,30.00,ENE,64,0.0,0.0,84,0.00,,,0.00,Wunderground v.1.15,2013-08-05 03:34:00,
2013-08-04 23:36:00,69.4,64.7,30.00,ENE,65,0.0,1.0,85,0.00,,,0.00,Wunderground v.1.15,2013-08-05 03:36:00,
2013-08-04 23:37:00,69.3,64.6,30.00,ENE,65,2.0,2.0,85,0.00,,,0.00,Wunderground v.1.15,2013-08-05 03:37:00,
2013-08-04 23:39:00,69.1,64.4,30.00,ENE,64,0.0,2.0,85,0.00,,,0.00,Wunderground v.1.15,2013-08-05 03:39:00,
2013-08-04 23:41:00,69.0,64.6,30.00,ENE,65,0.0,0.0,86,0.00,,,0.00,Wunderground v.1.15,2013-08-05 03:41:00,
2013-08-04 23:42:00,68.9,64.5,30.00,ENE,64,0.0,0.0,86,0.00,,,0.00,Wunderground v.1.15,2013-08-05 03:42:00,
2013-08-04 23:43:00,68.9,64.5,30.00,ENE,65,0.0,0.0,86,0.00,,,0.00,Wunderground v.1.15,2013-08-05 03:43:00,
2013-08-04 23:44:00,68.8,64.4,30.00,ENE,64,0.0,0.0,86,0.00,,,0.00,Wunderground v.1.15,2013-08-05 03:44:00,
2013-08-04 23:46:00,68.7,64.7,30.00,ENE,65,0.0,0.0,87,0.00,,,0.00,Wunderground v.1.15,2013-08-05 03:46:00,
2013-08-04 23:47:00,68.6,64.6,30.00,ENE,64,0.0,0.0,87,0.00,,,0.00,Wunderground v.1.15,2013-08-05 03:47:00,
2013-08-04 23:49:00,68.5,64.5,30.00,ENE,65,0.0,0.0,87,0.00,,,0.00,Wunderground v.1.15,2013-08-05 03:49:00,
2013-08-04 23:51:00,68.4,64.4,30.00,ENE,64,0.0,1.0,87,0.00,,,0.00,Wunderground v.1.15,2013-08-05 03:51:00,
2013-08-04 23:52:00,68.3,64.3,30.00,ENE,64,0.0,1.0,87,0.00,,,0.00,Wunderground v.1.15,2013-08-05 03:52:00,
2013-08-04 23:54:00,68.3,64.3,30.00,ENE,64,0.0,1.0,87,0.00,,,0.00,Wunderground v.1.15,2013-08-05 03:54:00,
2013-08-04 23:57:00,68.1,64.4,30.00,ENE,65,0.0,1.0,88,0.00,,,0.00,Wunderground v.1.15,2013-08-05 03:57:00,